<?xml version='1.0' encoding='UTF-8'?><gpx version="1.1" creator="JPX - https://github.com/jenetics/jpx" xmlns="http://www.topografix.com/GPX/1/1"><trk><trkseg><trkpt lat="51.042609279929295" lon="2.3789230527583163"><ele>8.0</ele><time>2026-04-30T17:18:59.001Z</time></trkpt><trkpt lat="51.04265137835864" lon="2.3790194108885343"><ele>7.999999999999999</ele><time>2026-04-30T17:19:01Z</time></trkpt><trkpt lat="51.04269488042198" lon="2.379120496655818"><ele>8.0</ele><time>2026-04-30T17:19:03Z</time></trkpt><trkpt lat="51.04273323108721" lon="2.379214220280641"><ele>8.0</ele><time>2026-04-30T17:19:06Z</time></trkpt><trkpt lat="51.042763948231396" lon="2.379327522719353"><ele>7.999999999999999</ele><time>2026-04-30T17:19:21Z</time></trkpt><trkpt lat="51.04280419944258" lon="2.3794318426820187"><ele>8.0</ele><time>2026-04-30T17:19:23Z</time></trkpt><trkpt lat="51.04286146490563" lon="2.3794984925743523"><ele>8.0</ele><time>2026-04-30T17:19:25Z</time></trkpt><trkpt lat="51.04290003672074" lon="2.3796146826274964"><ele>7.833333333333333</ele><time>2026-04-30T17:19:27Z</time></trkpt><trkpt lat="51.042960610326475" lon="2.3796903243790037"><ele>7.666666666666666</ele><time>2026-04-30T17:19:29Z</time></trkpt><trkpt lat="51.043010266597996" lon="2.3797975184040467"><ele>7.5</ele><time>2026-04-30T17:19:32Z</time></trkpt><trkpt lat="51.043073835206854" lon="2.37989341217963"><ele>7.333333333333334</ele><time>2026-04-30T17:19:35Z</time></trkpt><trkpt lat="51.043127340491914" lon="2.3799507550199035"><ele>7.166666666666667</ele><time>2026-04-30T17:19:37Z</time></trkpt><trkpt lat="51.043166552362564" lon="2.380047003536972"><ele>7.0</ele><time>2026-04-30T17:19:39Z</time></trkpt><trkpt lat="51.043226182561455" lon="2.3801394153486997"><ele>7.000000000000001</ele><time>2026-04-30T17:19:41Z</time></trkpt><trkpt lat="51.04326546606074" lon="2.380236566628461"><ele>7.0</ele><time>2026-04-30T17:19:43Z</time></trkpt><trkpt lat="51.043302054474765" lon="2.3803259477834695"><ele>7.0</ele><time>2026-04-30T17:19:45Z</time></trkpt><trkpt lat="51.04334188189093" lon="2.3804276298186635"><ele>7.0</ele><time>2026-04-30T17:19:47Z</time></trkpt><trkpt lat="51.043404204660035" lon="2.38051527191496"><ele>7.000000000000001</ele><time>2026-04-30T17:19:49Z</time></trkpt><trkpt lat="51.043454165128054" lon="2.3806103300716956"><ele>7.0</ele><time>2026-04-30T17:19:51Z</time></trkpt><trkpt lat="51.043518683467724" lon="2.3807051323140414"><ele>6.833333333333334</ele><time>2026-04-30T17:19:53Z</time></trkpt><trkpt lat="51.04357399282391" lon="2.380811321745844"><ele>6.666666666666667</ele><time>2026-04-30T17:19:55Z</time></trkpt><trkpt lat="51.043631965191274" lon="2.3809233273881025"><ele>6.5</ele><time>2026-04-30T17:19:57Z</time></trkpt><trkpt lat="51.04367963817394" lon="2.3810126867423786"><ele>6.333333333333334</ele><time>2026-04-30T17:19:59Z</time></trkpt><trkpt lat="51.0437218096347" lon="2.381105414797146"><ele>6.166666666666667</ele><time>2026-04-30T17:20:00.999Z</time></trkpt><trkpt lat="51.0437667351051" lon="2.381178765044349"><ele>6.0</ele><time>2026-04-30T17:20:02.999Z</time></trkpt><trkpt lat="51.043815416485295" lon="2.381291248337073"><ele>5.999999999999999</ele><time>2026-04-30T17:20:05.999Z</time></trkpt><trkpt lat="51.04387054364561" lon="2.381369577733303"><ele>6.0</ele><time>2026-04-30T17:20:08.999Z</time></trkpt><trkpt lat="51.04392062501283" lon="2.3814525237593718"><ele>6.0</ele><time>2026-04-30T17:20:12.999Z</time></trkpt><trkpt lat="51.04392596094182" lon="2.381572139984542"><ele>6.0</ele><time>2026-04-30T17:20:16.999Z</time></trkpt><trkpt lat="51.043967779715175" lon="2.3816582172500307"><ele>6.0</ele><time>2026-04-30T17:20:19.999Z</time></trkpt><trkpt lat="51.04399889774904" lon="2.3817591505523805"><ele>5.999999999999999</ele><time>2026-04-30T17:20:23.999Z</time></trkpt><trkpt lat="51.04403517208799" lon="2.3818816159845326"><ele>6.0</ele><time>2026-04-30T17:20:28.999Z</time></trkpt><trkpt lat="51.04402560215799" lon="2.3820031698742845"><ele>5.999999999999999</ele><time>2026-04-30T17:20:31.999Z</time></trkpt><trkpt lat="51.04397728144586" lon="2.3820812794218584"><ele>6.0</ele><time>2026-04-30T17:20:33.999Z</time></trkpt><trkpt lat="51.043918524752954" lon="2.382133290379679"><ele>6.0</ele><time>2026-04-30T17:20:35.999Z</time></trkpt><trkpt lat="51.04386549762707" lon="2.3821966139568063"><ele>6.0</ele><time>2026-04-30T17:20:37.999Z</time></trkpt><trkpt lat="51.04379091188164" lon="2.3822626154544566"><ele>6.0</ele><time>2026-04-30T17:20:40.999Z</time></trkpt><trkpt lat="51.043712648901376" lon="2.38234884982232"><ele>5.999999999999999</ele><time>2026-04-30T17:20:43.999Z</time></trkpt><trkpt lat="51.043659932893554" lon="2.38240856921992"><ele>6.0</ele><time>2026-04-30T17:20:45.999Z</time></trkpt><trkpt lat="51.04360432352043" lon="2.3824672854382847"><ele>6.166666666666667</ele><time>2026-04-30T17:20:47.999Z</time></trkpt><trkpt lat="51.043590716409064" lon="2.3826046364761755"><ele>6.333333333333334</ele><time>2026-04-30T17:20:50.999Z</time></trkpt><trkpt lat="51.04357049957271" lon="2.3827258211925098"><ele>6.5</ele><time>2026-04-30T17:20:53.999Z</time></trkpt><trkpt lat="51.04354775098649" lon="2.3828616446133633"><ele>6.666666666666667</ele><time>2026-04-30T17:20:56.999Z</time></trkpt><trkpt lat="51.04350561865484" lon="2.382957304993747"><ele>6.833333333333334</ele><time>2026-04-30T17:20:59.999Z</time></trkpt><trkpt lat="51.0434842065631" lon="2.383066778225708"><ele>7.0</ele><time>2026-04-30T17:21:01.999Z</time></trkpt><trkpt lat="51.04352205044807" lon="2.3831903273378146"><ele>7.000000000000001</ele><time>2026-04-30T17:21:03.999Z</time></trkpt><trkpt lat="51.043599917941506" lon="2.3832731282654223"><ele>7.0</ele><time>2026-04-30T17:21:05.999Z</time></trkpt><trkpt lat="51.04367072826586" lon="2.3833182265818262"><ele>7.0</ele><time>2026-04-30T17:21:07.999Z</time></trkpt><trkpt lat="51.043751321798766" lon="2.383366702252696"><ele>7.0</ele><time>2026-04-30T17:21:10.999Z</time></trkpt><trkpt lat="51.043815171938945" lon="2.383449455652232"><ele>7.000000000000001</ele><time>2026-04-30T17:21:13.999Z</time></trkpt><trkpt lat="51.04388696599629" lon="2.3835147584798797"><ele>7.0</ele><time>2026-04-30T17:21:16.999Z</time></trkpt><trkpt lat="51.0439492839937" lon="2.383580905138027"><ele>7.000000000000001</ele><time>2026-04-30T17:21:19.999Z</time></trkpt><trkpt lat="51.04399971695082" lon="2.383680015428634"><ele>7.0</ele><time>2026-04-30T17:21:22.999Z</time></trkpt><trkpt lat="51.04405456836933" lon="2.3837583212196414"><ele>7.0</ele><time>2026-04-30T17:21:25.999Z</time></trkpt><trkpt lat="51.04414763170076" lon="2.3837893719615337"><ele>7.0</ele><time>2026-04-30T17:21:28.999Z</time></trkpt><trkpt lat="51.04419820582037" lon="2.383883837136461"><ele>7.000000000000001</ele><time>2026-04-30T17:21:30.999Z</time></trkpt><trkpt lat="51.04429556173811" lon="2.3840014543768633"><ele>7.0</ele><time>2026-04-30T17:21:32.999Z</time></trkpt><trkpt lat="51.04438122557716" lon="2.384087980344434"><ele>7.000000000000001</ele><time>2026-04-30T17:21:34.999Z</time></trkpt><trkpt lat="51.044451466025414" lon="2.3841556563476947"><ele>7.0</ele><time>2026-04-30T17:21:36.999Z</time></trkpt><trkpt lat="51.044503897657236" lon="2.3842274054185006"><ele>7.0</ele><time>2026-04-30T17:21:38.999Z</time></trkpt><trkpt lat="51.04457077685647" lon="2.384277745818228"><ele>7.0</ele><time>2026-04-30T17:21:41.999Z</time></trkpt><trkpt lat="51.04462679764973" lon="2.3843582554306817"><ele>7.000000000000001</ele><time>2026-04-30T17:21:45.999Z</time></trkpt><trkpt lat="51.04469272985339" lon="2.38445384374245"><ele>7.0</ele><time>2026-04-30T17:21:48.999Z</time></trkpt><trkpt lat="51.04474609219435" lon="2.384568594372178"><ele>7.000000000000001</ele><time>2026-04-30T17:21:51.999Z</time></trkpt><trkpt lat="51.04479536931878" lon="2.3846655843597673"><ele>7.0</ele><time>2026-04-30T17:21:53.999Z</time></trkpt><trkpt lat="51.0448445642093" lon="2.3847744445029946"><ele>7.0</ele><time>2026-04-30T17:21:55.999Z</time></trkpt><trkpt lat="51.044896050656554" lon="2.3848720949053215"><ele>7.0</ele><time>2026-04-30T17:21:57.999Z</time></trkpt><trkpt lat="51.044951206964726" lon="2.384984795340907"><ele>7.000000000000001</ele><time>2026-04-30T17:21:59.999Z</time></trkpt><trkpt lat="51.044997757888375" lon="2.385101227974299"><ele>7.0</ele><time>2026-04-30T17:22:01.999Z</time></trkpt><trkpt lat="51.04506071373049" lon="2.3852192667782233"><ele>6.8</ele><time>2026-04-30T17:22:03.999Z</time></trkpt><trkpt lat="51.04511900051654" lon="2.3853396791539985"><ele>6.6</ele><time>2026-04-30T17:22:05.999Z</time></trkpt><trkpt lat="51.045173131149625" lon="2.3854498127949877"><ele>6.3999999999999995</ele><time>2026-04-30T17:22:07.999Z</time></trkpt><trkpt lat="51.04522116324715" lon="2.385555223660001"><ele>6.199999999999999</ele><time>2026-04-30T17:22:09.999Z</time></trkpt><trkpt lat="51.04531178440485" lon="2.3855781159377214"><ele>6.0</ele><time>2026-04-30T17:22:11.999Z</time></trkpt><trkpt lat="51.0454007550035" lon="2.3854559161990694"><ele>6.199999999999999</ele><time>2026-04-30T17:22:13.999Z</time></trkpt><trkpt lat="51.04545298740057" lon="2.3853729717757566"><ele>6.3999999999999995</ele><time>2026-04-30T17:22:14.999Z</time></trkpt><trkpt lat="51.04555418765133" lon="2.385324183039571"><ele>6.6</ele><time>2026-04-30T17:22:16.999Z</time></trkpt><trkpt lat="51.04564770635804" lon="2.385281049500977"><ele>6.8</ele><time>2026-04-30T17:22:18.999Z</time></trkpt><trkpt lat="51.04574040746459" lon="2.3852401879883147"><ele>7.0</ele><time>2026-04-30T17:22:20.999Z</time></trkpt><trkpt lat="51.04583614241874" lon="2.3851236714474724"><ele>7.000000000000001</ele><time>2026-04-30T17:22:22.999Z</time></trkpt><trkpt lat="51.045918250697994" lon="2.385046028152087"><ele>7.0</ele><time>2026-04-30T17:22:24.999Z</time></trkpt><trkpt lat="51.04599112677644" lon="2.384981861479987"><ele>7.0</ele><time>2026-04-30T17:22:26.999Z</time></trkpt><trkpt lat="51.04605767881905" lon="2.3849412166895574"><ele>7.0</ele><time>2026-04-30T17:22:28.999Z</time></trkpt><trkpt lat="51.04611210037581" lon="2.384871674407002"><ele>7.000000000000001</ele><time>2026-04-30T17:22:30.999Z</time></trkpt><trkpt lat="51.046188736384046" lon="2.384825587553349"><ele>7.0</ele><time>2026-04-30T17:22:33.999Z</time></trkpt><trkpt lat="51.046241389242255" lon="2.384767559974814"><ele>7.000000000000001</ele><time>2026-04-30T17:22:35.999Z</time></trkpt><trkpt lat="51.046299080974286" lon="2.384723808446762"><ele>7.0</ele><time>2026-04-30T17:22:37.999Z</time></trkpt><trkpt lat="51.04638606140325" lon="2.3846575920633524"><ele>7.0</ele><time>2026-04-30T17:22:40.999Z</time></trkpt><trkpt lat="51.04644270075253" lon="2.384590300768821"><ele>7.0</ele><time>2026-04-30T17:22:43.999Z</time></trkpt><trkpt lat="51.04650712946296" lon="2.3845212570100136"><ele>7.000000000000001</ele><time>2026-04-30T17:22:46.999Z</time></trkpt><trkpt lat="51.04659144089453" lon="2.3844546539600064"><ele>7.0</ele><time>2026-04-30T17:22:49.999Z</time></trkpt><trkpt lat="51.046648197443766" lon="2.3844007945397485"><ele>6.714285714285714</ele><time>2026-04-30T17:22:51.999Z</time></trkpt><trkpt lat="51.04669816143588" lon="2.3843348472350248"><ele>6.428571428571429</ele><time>2026-04-30T17:22:53.999Z</time></trkpt><trkpt lat="51.04675214670487" lon="2.3842795617968293"><ele>6.142857142857142</ele><time>2026-04-30T17:22:55.999Z</time></trkpt><trkpt lat="51.04680237148064" lon="2.384211150019547"><ele>5.857142857142858</ele><time>2026-04-30T17:22:59.999Z</time></trkpt><trkpt lat="51.04686633109253" lon="2.384132833629872"><ele>5.571428571428571</ele><time>2026-04-30T17:23:03.999Z</time></trkpt><trkpt lat="51.04692898374219" lon="2.3840969886203074"><ele>5.285714285714286</ele><time>2026-04-30T17:23:06.999Z</time></trkpt><trkpt lat="51.046984191805294" lon="2.3839885607093945"><ele>5.0</ele><time>2026-04-30T17:23:09.999Z</time></trkpt><trkpt lat="51.04703496314935" lon="2.3838987394647098"><ele>4.5</ele><time>2026-04-30T17:23:12.999Z</time></trkpt><trkpt lat="51.04709144012885" lon="2.3838189367764"><ele>4.0</ele><time>2026-04-30T17:23:16.999Z</time></trkpt><trkpt lat="51.04713533519406" lon="2.3837305864756546"><ele>3.5</ele><time>2026-04-30T17:23:19.999Z</time></trkpt><trkpt lat="51.04718048205572" lon="2.3836224452458543"><ele>3.0</ele><time>2026-04-30T17:23:23Z</time></trkpt><trkpt lat="51.04721591129729" lon="2.383503865837958"><ele>2.5</ele><time>2026-04-30T17:23:26Z</time></trkpt><trkpt lat="51.047261876778094" lon="2.383396758602076"><ele>2.0</ele><time>2026-04-30T17:23:29Z</time></trkpt><trkpt lat="51.04730985925198" lon="2.383280000618699"><ele>1.9999999999999998</ele><time>2026-04-30T17:23:32Z</time></trkpt><trkpt lat="51.0473871711591" lon="2.3832662410217456"><ele>2.0</ele><time>2026-04-30T17:23:36Z</time></trkpt><trkpt lat="51.04745291527561" lon="2.383299377564096"><ele>2.0</ele><time>2026-04-30T17:23:39Z</time></trkpt><trkpt lat="51.04751325307384" lon="2.38325136396571"><ele>2.0</ele><time>2026-04-30T17:23:43Z</time></trkpt><trkpt lat="51.04757468522222" lon="2.383198021778991"><ele>1.9999999999999998</ele><time>2026-04-30T17:23:46Z</time></trkpt><trkpt lat="51.04765375540515" lon="2.383254318120116"><ele>2.0</ele><time>2026-04-30T17:23:48Z</time></trkpt><trkpt lat="51.047674641843805" lon="2.383381675593966"><ele>2.571428571428571</ele><time>2026-04-30T17:23:50Z</time></trkpt><trkpt lat="51.04768021636077" lon="2.3834879390321015"><ele>3.1428571428571423</ele><time>2026-04-30T17:23:52Z</time></trkpt><trkpt lat="51.047696997290295" lon="2.3836084641468758"><ele>3.714285714285714</ele><time>2026-04-30T17:23:55Z</time></trkpt><trkpt lat="51.04775150468628" lon="2.3836794407770663"><ele>4.285714285714286</ele><time>2026-04-30T17:23:58Z</time></trkpt><trkpt lat="51.04782225395873" lon="2.383657781371521"><ele>4.857142857142857</ele><time>2026-04-30T17:24:00Z</time></trkpt><trkpt lat="51.0478865866531" lon="2.3836456728474062"><ele>5.428571428571428</ele><time>2026-04-30T17:24:02Z</time></trkpt><trkpt lat="51.04795230638066" lon="2.3836160202560985"><ele>6.0</ele><time>2026-04-30T17:24:04Z</time></trkpt><trkpt lat="51.048028901911565" lon="2.383594064007651"><ele>5.999999999999999</ele><time>2026-04-30T17:24:06Z</time></trkpt><trkpt lat="51.04810749707582" lon="2.383564966270389"><ele>6.0</ele><time>2026-04-30T17:24:08Z</time></trkpt><trkpt lat="51.0481761958853" lon="2.383539225992968"><ele>6.0</ele><time>2026-04-30T17:24:10Z</time></trkpt><trkpt lat="51.04824264206934" lon="2.3834901951312206"><ele>6.0</ele><time>2026-04-30T17:24:12Z</time></trkpt><trkpt lat="51.0483244607065" lon="2.383511071395623"><ele>6.0</ele><time>2026-04-30T17:24:15Z</time></trkpt><trkpt lat="51.048387235046704" lon="2.3835268554683755"><ele>5.999999999999999</ele><time>2026-04-30T17:24:17Z</time></trkpt><trkpt lat="51.04845344025776" lon="2.3835239363818497"><ele>6.0</ele><time>2026-04-30T17:24:19Z</time></trkpt><trkpt lat="51.04851959689101" lon="2.3835236234401123"><ele>5.833333333333333</ele><time>2026-04-30T17:24:21Z</time></trkpt><trkpt lat="51.04859331645814" lon="2.3835079977150033"><ele>5.666666666666667</ele><time>2026-04-30T17:24:23Z</time></trkpt><trkpt lat="51.04867251677078" lon="2.3834748722980086"><ele>5.5</ele><time>2026-04-30T17:24:25Z</time></trkpt><trkpt lat="51.0487573279125" lon="2.383403361812656"><ele>5.333333333333334</ele><time>2026-04-30T17:24:27Z</time></trkpt><trkpt lat="51.048820767876414" lon="2.3834175849781705"><ele>5.166666666666667</ele><time>2026-04-30T17:24:29Z</time></trkpt><trkpt lat="51.04886134677219" lon="2.383497541590957"><ele>5.0</ele><time>2026-04-30T17:24:33Z</time></trkpt><trkpt lat="51.048893158163196" lon="2.3836252520125907"><ele>5.0</ele><time>2026-04-30T17:24:36Z</time></trkpt><trkpt lat="51.0489207450874" lon="2.3837351886877762"><ele>5.0</ele><time>2026-04-30T17:24:38Z</time></trkpt><trkpt lat="51.04894478606326" lon="2.3838608345088197"><ele>5.0</ele><time>2026-04-30T17:24:40Z</time></trkpt><trkpt lat="51.04894163977889" lon="2.383972806854869"><ele>5.0</ele><time>2026-04-30T17:24:42Z</time></trkpt><trkpt lat="51.0489811411599" lon="2.384105972195661"><ele>5.0</ele><time>2026-04-30T17:24:44Z</time></trkpt><trkpt lat="51.04899830021185" lon="2.3842214727407907"><ele>5.0</ele><time>2026-04-30T17:24:46Z</time></trkpt><trkpt lat="51.04901197009723" lon="2.3843304398511727"><ele>5.285714285714286</ele><time>2026-04-30T17:24:48Z</time></trkpt><trkpt lat="51.0490245068039" lon="2.3844378716486987"><ele>5.571428571428571</ele><time>2026-04-30T17:24:50Z</time></trkpt><trkpt lat="51.04903583529454" lon="2.3845445749298286"><ele>5.857142857142858</ele><time>2026-04-30T17:24:52Z</time></trkpt><trkpt lat="51.04904495354875" lon="2.384655037338928"><ele>6.142857142857142</ele><time>2026-04-30T17:24:54Z</time></trkpt><trkpt lat="51.04908465491172" lon="2.3847560658298392"><ele>6.428571428571429</ele><time>2026-04-30T17:24:56Z</time></trkpt><trkpt lat="51.049102830272815" lon="2.384887707792331"><ele>6.714285714285714</ele><time>2026-04-30T17:24:57.999Z</time></trkpt><trkpt lat="51.0491216034363" lon="2.3850152490842667"><ele>7.0</ele><time>2026-04-30T17:24:59.999Z</time></trkpt><trkpt lat="51.049125172514" lon="2.3851278700865146"><ele>6.666666666666667</ele><time>2026-04-30T17:25:01.999Z</time></trkpt><trkpt lat="51.049136941097615" lon="2.3852450698159697"><ele>6.333333333333334</ele><time>2026-04-30T17:25:04.999Z</time></trkpt><trkpt lat="51.049173120641754" lon="2.3853717426723406"><ele>6.0</ele><time>2026-04-30T17:25:07.999Z</time></trkpt><trkpt lat="51.04920564123587" lon="2.3855114476241788"><ele>5.666666666666667</ele><time>2026-04-30T17:25:10.999Z</time></trkpt><trkpt lat="51.04922409555508" lon="2.3856094857116066"><ele>5.333333333333334</ele><time>2026-04-30T17:25:12.999Z</time></trkpt><trkpt lat="51.04924912405307" lon="2.385736186501704"><ele>5.0</ele><time>2026-04-30T17:25:15Z</time></trkpt><trkpt lat="51.0492731119261" lon="2.3858502691156582"><ele>5.0</ele><time>2026-04-30T17:25:17Z</time></trkpt><trkpt lat="51.04930344951289" lon="2.3859732993932825"><ele>5.0</ele><time>2026-04-30T17:25:19Z</time></trkpt><trkpt lat="51.049322188804084" lon="2.386090747416037"><ele>5.0</ele><time>2026-04-30T17:25:21Z</time></trkpt><trkpt lat="51.04935123847503" lon="2.3862167023413114"><ele>5.0</ele><time>2026-04-30T17:25:23Z</time></trkpt><trkpt lat="51.04937870690695" lon="2.386342696021685"><ele>5.0</ele><time>2026-04-30T17:25:25Z</time></trkpt><trkpt lat="51.04938919371562" lon="2.3864673591032455"><ele>5.0</ele><time>2026-04-30T17:25:27Z</time></trkpt><trkpt lat="51.049404274191346" lon="2.3865881589458717"><ele>5.0</ele><time>2026-04-30T17:25:29Z</time></trkpt><trkpt lat="51.049427870704704" lon="2.386691634666951"><ele>5.0</ele><time>2026-04-30T17:25:31Z</time></trkpt><trkpt lat="51.04941734340939" lon="2.386808451298155"><ele>5.0</ele><time>2026-04-30T17:25:33Z</time></trkpt><trkpt lat="51.04943916559477" lon="2.386937409321055"><ele>5.0</ele><time>2026-04-30T17:25:35Z</time></trkpt><trkpt lat="51.049464862528126" lon="2.387044885927426"><ele>5.0</ele><time>2026-04-30T17:25:37Z</time></trkpt><trkpt lat="51.04948100546258" lon="2.387163949524913"><ele>5.0</ele><time>2026-04-30T17:25:39Z</time></trkpt><trkpt lat="51.04950431304819" lon="2.387280839801873"><ele>5.5</ele><time>2026-04-30T17:25:41Z</time></trkpt><trkpt lat="51.04953386964796" lon="2.3874433501836805"><ele>6.0</ele><time>2026-04-30T17:25:44Z</time></trkpt><trkpt lat="51.049558533474936" lon="2.3875355207092315"><ele>6.5</ele><time>2026-04-30T17:25:46Z</time></trkpt><trkpt lat="51.04958957262157" lon="2.3876606620515344"><ele>7.0</ele><time>2026-04-30T17:25:48Z</time></trkpt><trkpt lat="51.049590267809776" lon="2.3877712370518154"><ele>7.499999999999999</ele><time>2026-04-30T17:25:50Z</time></trkpt><trkpt lat="51.04960661032699" lon="2.387897300329171"><ele>8.0</ele><time>2026-04-30T17:25:52Z</time></trkpt><trkpt lat="51.04962033353225" lon="2.3880220620737735"><ele>8.5</ele><time>2026-04-30T17:25:54Z</time></trkpt><trkpt lat="51.04962792476507" lon="2.3881525858665595"><ele>9.0</ele><time>2026-04-30T17:25:56Z</time></trkpt><trkpt lat="51.049657452643885" lon="2.388247126705103"><ele>9.5</ele><time>2026-04-30T17:25:58Z</time></trkpt><trkpt lat="51.04968362035801" lon="2.3883598277040874"><ele>10.0</ele><time>2026-04-30T17:26:00Z</time></trkpt><trkpt lat="51.04970268919688" lon="2.388476289812713"><ele>10.5</ele><time>2026-04-30T17:26:02Z</time></trkpt><trkpt lat="51.04972150553601" lon="2.3885965970235"><ele>11.0</ele><time>2026-04-30T17:26:04Z</time></trkpt><trkpt lat="51.049735704132715" lon="2.388716981110323"><ele>11.0</ele><time>2026-04-30T17:26:06Z</time></trkpt><trkpt lat="51.04974229921423" lon="2.388818407446394"><ele>11.0</ele><time>2026-04-30T17:26:08Z</time></trkpt><trkpt lat="51.04972827342592" lon="2.3889473373364587"><ele>11.0</ele><time>2026-04-30T17:26:10Z</time></trkpt><trkpt lat="51.049738805242505" lon="2.389084341302014"><ele>11.0</ele><time>2026-04-30T17:26:12Z</time></trkpt><trkpt lat="51.049735754173604" lon="2.3892076940591824"><ele>11.0</ele><time>2026-04-30T17:26:14Z</time></trkpt><trkpt lat="51.04974072609106" lon="2.3893139472689255"><ele>11.0</ele><time>2026-04-30T17:26:16Z</time></trkpt><trkpt lat="51.04974683007358" lon="2.3894332121160975"><ele>10.666666666666666</ele><time>2026-04-30T17:26:18Z</time></trkpt><trkpt lat="51.04974033847904" lon="2.389557634317337"><ele>10.333333333333332</ele><time>2026-04-30T17:26:20Z</time></trkpt><trkpt lat="51.04976413353001" lon="2.3896731173504087"><ele>10.0</ele><time>2026-04-30T17:26:22Z</time></trkpt><trkpt lat="51.049769095316435" lon="2.3897979322013505"><ele>9.666666666666666</ele><time>2026-04-30T17:26:24Z</time></trkpt><trkpt lat="51.049778602748376" lon="2.3899071043158706"><ele>9.333333333333334</ele><time>2026-04-30T17:26:26Z</time></trkpt><trkpt lat="51.049793098148946" lon="2.3900403366382594"><ele>9.0</ele><time>2026-04-30T17:26:28Z</time></trkpt><trkpt lat="51.04978791012424" lon="2.3901564295495183"><ele>8.857142857142858</ele><time>2026-04-30T17:26:30Z</time></trkpt><trkpt lat="51.0497674757393" lon="2.3902540066853857"><ele>8.714285714285715</ele><time>2026-04-30T17:26:31Z</time></trkpt><trkpt lat="51.0497877211859" lon="2.3903527819086126"><ele>8.571428571428571</ele><time>2026-04-30T17:26:33Z</time></trkpt><trkpt lat="51.04982891698107" lon="2.3904811412098836"><ele>8.428571428571429</ele><time>2026-04-30T17:26:36Z</time></trkpt><trkpt lat="51.04980683262692" lon="2.3905752998105907"><ele>8.285714285714285</ele><time>2026-04-30T17:26:38Z</time></trkpt><trkpt lat="51.04979512633559" lon="2.390700949876696"><ele>8.142857142857142</ele><time>2026-04-30T17:26:42Z</time></trkpt><trkpt lat="51.049806926843765" lon="2.3908108137016977"><ele>8.0</ele><time>2026-04-30T17:26:44Z</time></trkpt><trkpt lat="51.04980965505131" lon="2.3909195146292697"><ele>8.333333333333332</ele><time>2026-04-30T17:26:46Z</time></trkpt><trkpt lat="51.049808727502246" lon="2.39105019867769"><ele>8.666666666666666</ele><time>2026-04-30T17:26:48Z</time></trkpt><trkpt lat="51.049826788836945" lon="2.3911713178511538"><ele>9.0</ele><time>2026-04-30T17:26:50Z</time></trkpt><trkpt lat="51.049829234833524" lon="2.391287661736082"><ele>9.333333333333334</ele><time>2026-04-30T17:26:52Z</time></trkpt><trkpt lat="51.04985590367153" lon="2.3914029332274973"><ele>9.666666666666668</ele><time>2026-04-30T17:26:54Z</time></trkpt><trkpt lat="51.04987354046241" lon="2.39151913002518"><ele>10.0</ele><time>2026-04-30T17:26:56Z</time></trkpt><trkpt lat="51.049901133136466" lon="2.3916358198841547"><ele>10.333333333333334</ele><time>2026-04-30T17:26:58Z</time></trkpt><trkpt lat="51.04989966622255" lon="2.3917970593104796"><ele>10.666666666666668</ele><time>2026-04-30T17:27:01Z</time></trkpt><trkpt lat="51.04993162403059" lon="2.391925736859108"><ele>11.0</ele><time>2026-04-30T17:27:03Z</time></trkpt><trkpt lat="51.04993808872027" lon="2.3920459397708234"><ele>11.333333333333334</ele><time>2026-04-30T17:27:05.001Z</time></trkpt><trkpt lat="51.04994921219513" lon="2.3921667951460606"><ele>11.666666666666666</ele><time>2026-04-30T17:27:07.001Z</time></trkpt><trkpt lat="51.04997696802735" lon="2.3922775034521933"><ele>12.0</ele><time>2026-04-30T17:27:09.001Z</time></trkpt><trkpt lat="51.04999406390794" lon="2.392405723663776"><ele>11.2</ele><time>2026-04-30T17:27:11.001Z</time></trkpt><trkpt lat="51.04999973384699" lon="2.3925279677519624"><ele>10.399999999999999</ele><time>2026-04-30T17:27:13.001Z</time></trkpt><trkpt lat="51.05001832029826" lon="2.3926636318043073"><ele>9.600000000000001</ele><time>2026-04-30T17:27:15.001Z</time></trkpt><trkpt lat="51.05003909682065" lon="2.39281997761704"><ele>8.8</ele><time>2026-04-30T17:27:17.001Z</time></trkpt><trkpt lat="51.05009953069695" lon="2.392932323513199"><ele>8.0</ele><time>2026-04-30T17:27:19.001Z</time></trkpt><trkpt lat="51.05015117340841" lon="2.3930594771245604"><ele>7.999999999999999</ele><time>2026-04-30T17:27:21.001Z</time></trkpt><trkpt lat="51.050151583404705" lon="2.393193405981237"><ele>8.0</ele><time>2026-04-30T17:27:23.001Z</time></trkpt><trkpt lat="51.05017466957482" lon="2.3933506950656964"><ele>8.0</ele><time>2026-04-30T17:27:26.001Z</time></trkpt><trkpt lat="51.05017983724852" lon="2.393453138239449"><ele>8.0</ele><time>2026-04-30T17:27:28.001Z</time></trkpt><trkpt lat="51.050181401863256" lon="2.393572787903871"><ele>7.999999999999999</ele><time>2026-04-30T17:27:31.001Z</time></trkpt><trkpt lat="51.05024288899475" lon="2.3936771203659193"><ele>8.0</ele><time>2026-04-30T17:27:34.001Z</time></trkpt><trkpt lat="51.05026917511875" lon="2.393842595824114"><ele>8.333333333333332</ele><time>2026-04-30T17:27:37.001Z</time></trkpt><trkpt lat="51.05028037113866" lon="2.393983091292483"><ele>8.666666666666666</ele><time>2026-04-30T17:27:40.001Z</time></trkpt><trkpt lat="51.050304155076816" lon="2.3941172413894156"><ele>9.0</ele><time>2026-04-30T17:27:43.001Z</time></trkpt><trkpt lat="51.05029164728271" lon="2.3942308171732387"><ele>9.333333333333334</ele><time>2026-04-30T17:27:45.001Z</time></trkpt><trkpt lat="51.05030734076574" lon="2.3943359339122035"><ele>9.666666666666668</ele><time>2026-04-30T17:27:48.001Z</time></trkpt><trkpt lat="51.05031944311713" lon="2.3944658039114235"><ele>10.0</ele><time>2026-04-30T17:27:51.001Z</time></trkpt><trkpt lat="51.05033311069436" lon="2.3945974891911015"><ele>10.0</ele><time>2026-04-30T17:27:53.001Z</time></trkpt><trkpt lat="51.05034443003809" lon="2.3947775005337855"><ele>10.0</ele><time>2026-04-30T17:27:55.001Z</time></trkpt><trkpt lat="51.05034973623998" lon="2.394892978770088"><ele>10.0</ele><time>2026-04-30T17:27:56.001Z</time></trkpt><trkpt lat="51.050392045683516" lon="2.39505000562102"><ele>10.0</ele><time>2026-04-30T17:27:58.001Z</time></trkpt><trkpt lat="51.050419030988024" lon="2.3951876169531032"><ele>10.0</ele><time>2026-04-30T17:28:00.001Z</time></trkpt><trkpt lat="51.05043072180429" lon="2.3952920930291444"><ele>10.0</ele><time>2026-04-30T17:28:02.001Z</time></trkpt><trkpt lat="51.0504459471487" lon="2.395416284390985"><ele>10.0</ele><time>2026-04-30T17:28:04.001Z</time></trkpt><trkpt lat="51.05045247745372" lon="2.395548726566148"><ele>10.0</ele><time>2026-04-30T17:28:06.001Z</time></trkpt><trkpt lat="51.05046341651412" lon="2.395676239825108"><ele>10.0</ele><time>2026-04-30T17:28:08.001Z</time></trkpt><trkpt lat="51.05048807274704" lon="2.3958348711666173"><ele>10.0</ele><time>2026-04-30T17:28:10.001Z</time></trkpt><trkpt lat="51.050521875781435" lon="2.395944662512563"><ele>10.0</ele><time>2026-04-30T17:28:12.001Z</time></trkpt><trkpt lat="51.050535202118006" lon="2.3960467628997084"><ele>10.166666666666668</ele><time>2026-04-30T17:28:14.001Z</time></trkpt><trkpt lat="51.05051660264844" lon="2.396156186173548"><ele>10.333333333333334</ele><time>2026-04-30T17:28:16.001Z</time></trkpt><trkpt lat="51.05050915198108" lon="2.396336478867711"><ele>10.5</ele><time>2026-04-30T17:28:18.001Z</time></trkpt><trkpt lat="51.05052462967227" lon="2.396450897721173"><ele>10.666666666666666</ele><time>2026-04-30T17:28:20Z</time></trkpt><trkpt lat="51.05055157946787" lon="2.3965488387198572"><ele>10.833333333333332</ele><time>2026-04-30T17:28:22Z</time></trkpt><trkpt lat="51.0505965392963" lon="2.396639704511521"><ele>11.0</ele><time>2026-04-30T17:28:24Z</time></trkpt><trkpt lat="51.05064940050102" lon="2.396741478615588"><ele>11.0</ele><time>2026-04-30T17:28:27Z</time></trkpt><trkpt lat="51.05067169239371" lon="2.3968479619249163"><ele>11.0</ele><time>2026-04-30T17:28:30Z</time></trkpt><trkpt lat="51.050689727311585" lon="2.3969810811750314"><ele>11.0</ele><time>2026-04-30T17:28:33Z</time></trkpt><trkpt lat="51.050709672091465" lon="2.397125370384982"><ele>11.0</ele><time>2026-04-30T17:28:36Z</time></trkpt><trkpt lat="51.050722009675376" lon="2.397233695156358"><ele>11.0</ele><time>2026-04-30T17:28:38Z</time></trkpt><trkpt lat="51.05070318529579" lon="2.397342625585272"><ele>11.0</ele><time>2026-04-30T17:28:50Z</time></trkpt><trkpt lat="51.05069671095375" lon="2.3974431170021573"><ele>10.857142857142858</ele><time>2026-04-30T17:28:53Z</time></trkpt><trkpt lat="51.05074203292523" lon="2.3975209292044255"><ele>10.714285714285714</ele><time>2026-04-30T17:28:55Z</time></trkpt><trkpt lat="51.050752546182615" lon="2.397648350602741"><ele>10.571428571428571</ele><time>2026-04-30T17:28:58Z</time></trkpt><trkpt lat="51.050779291216685" lon="2.39778999076753"><ele>10.428571428571429</ele><time>2026-04-30T17:29:01Z</time></trkpt><trkpt lat="51.05079475791684" lon="2.397894023132794"><ele>10.285714285714286</ele><time>2026-04-30T17:29:03Z</time></trkpt><trkpt lat="51.05080957604127" lon="2.3980001836365497"><ele>10.142857142857142</ele><time>2026-04-30T17:29:05Z</time></trkpt><trkpt lat="51.05082533365628" lon="2.398101113480032"><ele>10.0</ele><time>2026-04-30T17:29:07Z</time></trkpt><trkpt lat="51.05083872477178" lon="2.3982089918907117"><ele>10.0</ele><time>2026-04-30T17:29:09Z</time></trkpt><trkpt lat="51.05083986860055" lon="2.398321321722821"><ele>10.0</ele><time>2026-04-30T17:29:11Z</time></trkpt><trkpt lat="51.050850635726256" lon="2.3984316365000886"><ele>10.0</ele><time>2026-04-30T17:29:13Z</time></trkpt><trkpt lat="51.05087222760222" lon="2.3985759332759526"><ele>10.0</ele><time>2026-04-30T17:29:16Z</time></trkpt><trkpt lat="51.050867609121205" lon="2.3986893282231114"><ele>10.0</ele><time>2026-04-30T17:29:18Z</time></trkpt><trkpt lat="51.05087755777276" lon="2.3987953954121077"><ele>10.0</ele><time>2026-04-30T17:29:20Z</time></trkpt><trkpt lat="51.050895733190906" lon="2.3989022746448647"><ele>10.0</ele><time>2026-04-30T17:29:22Z</time></trkpt><trkpt lat="51.05091279553209" lon="2.399008447699444"><ele>10.142857142857142</ele><time>2026-04-30T17:29:24Z</time></trkpt><trkpt lat="51.050927447986155" lon="2.399133563659762"><ele>10.285714285714286</ele><time>2026-04-30T17:29:26Z</time></trkpt><trkpt lat="51.050937789285875" lon="2.3992341567847064"><ele>10.428571428571429</ele><time>2026-04-30T17:29:28Z</time></trkpt><trkpt lat="51.05094426073069" lon="2.3993346886986897"><ele>10.571428571428571</ele><time>2026-04-30T17:29:30Z</time></trkpt><trkpt lat="51.05095640567205" lon="2.399434418916133"><ele>10.714285714285714</ele><time>2026-04-30T17:29:32Z</time></trkpt><trkpt lat="51.05096688261318" lon="2.399559259492663"><ele>10.857142857142858</ele><time>2026-04-30T17:29:35Z</time></trkpt><trkpt lat="51.05098448933023" lon="2.3996824904851684"><ele>11.0</ele><time>2026-04-30T17:29:38Z</time></trkpt><trkpt lat="51.050985429934165" lon="2.3997844345434647"><ele>11.0</ele><time>2026-04-30T17:29:40Z</time></trkpt><trkpt lat="51.05099013588703" lon="2.3998936279494547"><ele>11.0</ele><time>2026-04-30T17:29:42Z</time></trkpt><trkpt lat="51.05099437902919" lon="2.400035756191288"><ele>11.0</ele><time>2026-04-30T17:29:45Z</time></trkpt><trkpt lat="51.05101124038224" lon="2.4001666546042193"><ele>11.0</ele><time>2026-04-30T17:29:48Z</time></trkpt><trkpt lat="51.05103290082332" lon="2.4002786128117912"><ele>11.0</ele><time>2026-04-30T17:29:51Z</time></trkpt><trkpt lat="51.05103659928635" lon="2.4004059116748806"><ele>11.0</ele><time>2026-04-30T17:29:53Z</time></trkpt><trkpt lat="51.05103558416718" lon="2.4005240167518704"><ele>11.0</ele><time>2026-04-30T17:29:55Z</time></trkpt><trkpt lat="51.0510712626807" lon="2.400629735508213"><ele>11.0</ele><time>2026-04-30T17:29:57Z</time></trkpt><trkpt lat="51.05111245862211" lon="2.4007515346560067"><ele>11.0</ele><time>2026-04-30T17:29:59Z</time></trkpt><trkpt lat="51.051146963619914" lon="2.40085658061201"><ele>11.0</ele><time>2026-04-30T17:30:01Z</time></trkpt><trkpt lat="51.051165666230645" lon="2.400998895491705"><ele>11.0</ele><time>2026-04-30T17:30:04Z</time></trkpt><trkpt lat="51.05116978083402" lon="2.4011209144883865"><ele>11.0</ele><time>2026-04-30T17:30:06Z</time></trkpt><trkpt lat="51.051187512323594" lon="2.401219656542636"><ele>11.0</ele><time>2026-04-30T17:30:08Z</time></trkpt><trkpt lat="51.051194742278334" lon="2.4013367985514673"><ele>11.0</ele><time>2026-04-30T17:30:10Z</time></trkpt><trkpt lat="51.05121326380481" lon="2.401435000325635"><ele>11.0</ele><time>2026-04-30T17:30:12Z</time></trkpt><trkpt lat="51.05122046428699" lon="2.4015623590574533"><ele>11.0</ele><time>2026-04-30T17:30:14Z</time></trkpt><trkpt lat="51.05123833397761" lon="2.4017113315260756"><ele>11.0</ele><time>2026-04-30T17:30:17Z</time></trkpt><trkpt lat="51.051258150057244" lon="2.401809495496923"><ele>11.0</ele><time>2026-04-30T17:30:19Z</time></trkpt><trkpt lat="51.05127107977113" lon="2.4019276144775845"><ele>11.0</ele><time>2026-04-30T17:30:21Z</time></trkpt><trkpt lat="51.051292618565476" lon="2.4020317320851294"><ele>11.0</ele><time>2026-04-30T17:30:23Z</time></trkpt><trkpt lat="51.05131332690366" lon="2.402128559438454"><ele>11.0</ele><time>2026-04-30T17:30:25Z</time></trkpt><trkpt lat="51.051331674592134" lon="2.4022318448446636"><ele>11.0</ele><time>2026-04-30T17:30:27Z</time></trkpt><trkpt lat="51.05134137087604" lon="2.4023723656461615"><ele>11.0</ele><time>2026-04-30T17:30:30Z</time></trkpt><trkpt lat="51.05135362230138" lon="2.402516929499896"><ele>11.0</ele><time>2026-04-30T17:30:33Z</time></trkpt><trkpt lat="51.05138349177171" lon="2.40262782939611"><ele>11.0</ele><time>2026-04-30T17:30:35Z</time></trkpt><trkpt lat="51.05139580389151" lon="2.4027681099689384"><ele>11.0</ele><time>2026-04-30T17:30:38Z</time></trkpt><trkpt lat="51.05142192928779" lon="2.4028691841058287"><ele>11.0</ele><time>2026-04-30T17:30:40Z</time></trkpt><trkpt lat="51.051428540606054" lon="2.402974785182115"><ele>11.0</ele><time>2026-04-30T17:30:42Z</time></trkpt><trkpt lat="51.05144635819255" lon="2.4030766693299865"><ele>11.0</ele><time>2026-04-30T17:30:44Z</time></trkpt><trkpt lat="51.05148340494409" lon="2.403162287848721"><ele>11.0</ele><time>2026-04-30T17:30:46Z</time></trkpt><trkpt lat="51.05149080115214" lon="2.4032787525387973"><ele>11.0</ele><time>2026-04-30T17:30:48Z</time></trkpt><trkpt lat="51.051512863594446" lon="2.40340409583656"><ele>10.666666666666666</ele><time>2026-04-30T17:30:50Z</time></trkpt><trkpt lat="51.05153420613922" lon="2.4035089899100885"><ele>10.333333333333332</ele><time>2026-04-30T17:30:52Z</time></trkpt><trkpt lat="51.05155190139187" lon="2.4036318195377135"><ele>10.0</ele><time>2026-04-30T17:30:54Z</time></trkpt><trkpt lat="51.05157439363858" lon="2.4037439125311906"><ele>9.666666666666666</ele><time>2026-04-30T17:30:56Z</time></trkpt><trkpt lat="51.051595607516745" lon="2.4038393965864437"><ele>9.333333333333334</ele><time>2026-04-30T17:30:58Z</time></trkpt><trkpt lat="51.0516175007446" lon="2.4039859794938225"><ele>9.0</ele><time>2026-04-30T17:31:01Z</time></trkpt><trkpt lat="51.05165323210871" lon="2.404088541401685"><ele>8.833333333333334</ele><time>2026-04-30T17:31:03Z</time></trkpt><trkpt lat="51.051687772642886" lon="2.4042212470661464"><ele>8.666666666666666</ele><time>2026-04-30T17:31:06Z</time></trkpt><trkpt lat="51.05171532938552" lon="2.4043455775253735"><ele>8.5</ele><time>2026-04-30T17:31:08Z</time></trkpt><trkpt lat="51.051744700815775" lon="2.4044413279649155"><ele>8.333333333333332</ele><time>2026-04-30T17:31:10Z</time></trkpt><trkpt lat="51.05176788381299" lon="2.4045465341043766"><ele>8.166666666666666</ele><time>2026-04-30T17:31:12Z</time></trkpt><trkpt lat="51.051791355540324" lon="2.40464814857592"><ele>8.0</ele><time>2026-04-30T17:31:14Z</time></trkpt><trkpt lat="51.05183855450309" lon="2.4047504414480083"><ele>7.999999999999999</ele><time>2026-04-30T17:31:17.001Z</time></trkpt><trkpt lat="51.05187679104272" lon="2.404877428030381"><ele>8.0</ele><time>2026-04-30T17:31:20.001Z</time></trkpt><trkpt lat="51.05190475758091" lon="2.4050154777566886"><ele>8.0</ele><time>2026-04-30T17:31:23.001Z</time></trkpt><trkpt lat="51.051926393577915" lon="2.405132217927821"><ele>8.0</ele><time>2026-04-30T17:31:26.001Z</time></trkpt><trkpt lat="51.05193762137548" lon="2.405231925433525"><ele>7.999999999999999</ele><time>2026-04-30T17:31:28.001Z</time></trkpt><trkpt lat="51.051960177560936" lon="2.4053330024562634"><ele>8.0</ele><time>2026-04-30T17:31:30.001Z</time></trkpt><trkpt lat="51.051984018183674" lon="2.405474611322258"><ele>8.166666666666666</ele><time>2026-04-30T17:31:33.001Z</time></trkpt><trkpt lat="51.052012037645326" lon="2.4055912382232423"><ele>8.333333333333332</ele><time>2026-04-30T17:31:36Z</time></trkpt><trkpt lat="51.052040289917514" lon="2.405707671395084"><ele>8.5</ele><time>2026-04-30T17:31:39Z</time></trkpt><trkpt lat="51.05205749163473" lon="2.405841871962551"><ele>8.666666666666666</ele><time>2026-04-30T17:31:42Z</time></trkpt><trkpt lat="51.052055036541425" lon="2.405961473269883"><ele>8.833333333333334</ele><time>2026-04-30T17:31:44Z</time></trkpt><trkpt lat="51.05206809580153" lon="2.4060820078215426"><ele>9.0</ele><time>2026-04-30T17:31:46Z</time></trkpt><trkpt lat="51.05208474251919" lon="2.406193585336649"><ele>9.0</ele><time>2026-04-30T17:31:48Z</time></trkpt><trkpt lat="51.05213009313181" lon="2.406294629910309"><ele>9.0</ele><time>2026-04-30T17:31:51Z</time></trkpt><trkpt lat="51.05215812366077" lon="2.406414458430722"><ele>9.0</ele><time>2026-04-30T17:31:54Z</time></trkpt><trkpt lat="51.0521798383976" lon="2.406556968489317"><ele>9.0</ele><time>2026-04-30T17:31:57Z</time></trkpt><trkpt lat="51.052201084484395" lon="2.406678677704151"><ele>9.0</ele><time>2026-04-30T17:32:00Z</time></trkpt><trkpt lat="51.052227689923676" lon="2.4067902483637003"><ele>9.0</ele><time>2026-04-30T17:32:03Z</time></trkpt><trkpt lat="51.052229659005825" lon="2.4069098776821427"><ele>9.285714285714286</ele><time>2026-04-30T17:32:05Z</time></trkpt><trkpt lat="51.05222357721186" lon="2.407031895461746"><ele>9.571428571428571</ele><time>2026-04-30T17:32:07Z</time></trkpt><trkpt lat="51.05222848489141" lon="2.4071393112076516"><ele>9.857142857142858</ele><time>2026-04-30T17:32:09Z</time></trkpt><trkpt lat="51.05224016326826" lon="2.407258923764355"><ele>10.142857142857142</ele><time>2026-04-30T17:32:11Z</time></trkpt><trkpt lat="51.052264227021496" lon="2.407354124886951"><ele>10.428571428571429</ele><time>2026-04-30T17:32:13Z</time></trkpt><trkpt lat="51.052285393611875" lon="2.4074811965776144"><ele>10.714285714285715</ele><time>2026-04-30T17:32:15Z</time></trkpt><trkpt lat="51.052319430931874" lon="2.4075970853603694"><ele>11.0</ele><time>2026-04-30T17:32:17Z</time></trkpt><trkpt lat="51.05233651783468" lon="2.4077432375114443"><ele>11.0</ele><time>2026-04-30T17:32:20Z</time></trkpt><trkpt lat="51.05237067254851" lon="2.4078663649112637"><ele>11.0</ele><time>2026-04-30T17:32:22Z</time></trkpt><trkpt lat="51.05241955981801" lon="2.407970522627719"><ele>11.0</ele><time>2026-04-30T17:32:24Z</time></trkpt><trkpt lat="51.05244413433283" lon="2.408111880157047"><ele>11.0</ele><time>2026-04-30T17:32:27Z</time></trkpt><trkpt lat="51.052452256040965" lon="2.4082656409711722"><ele>11.0</ele><time>2026-04-30T17:32:29Z</time></trkpt><trkpt lat="51.05247567257731" lon="2.408383789411792"><ele>11.0</ele><time>2026-04-30T17:32:31Z</time></trkpt><trkpt lat="51.05248507494673" lon="2.4085073677807163"><ele>10.833333333333332</ele><time>2026-04-30T17:32:33Z</time></trkpt><trkpt lat="51.05251011793036" lon="2.4086408010353613"><ele>10.666666666666666</ele><time>2026-04-30T17:32:35Z</time></trkpt><trkpt lat="51.052537679135924" lon="2.4087519788679073"><ele>10.5</ele><time>2026-04-30T17:32:37Z</time></trkpt><trkpt lat="51.0526046646636" lon="2.40882093517484"><ele>10.333333333333334</ele><time>2026-04-30T17:32:39Z</time></trkpt><trkpt lat="51.052631400320564" lon="2.408938401857061"><ele>10.166666666666668</ele><time>2026-04-30T17:32:41Z</time></trkpt><trkpt lat="51.05266074153542" lon="2.4090920501267608"><ele>10.0</ele><time>2026-04-30T17:32:44Z</time></trkpt><trkpt lat="51.052672346855836" lon="2.409208836523846"><ele>10.0</ele><time>2026-04-30T17:32:46Z</time></trkpt><trkpt lat="51.05267942866648" lon="2.409319755991844"><ele>10.0</ele><time>2026-04-30T17:32:48Z</time></trkpt><trkpt lat="51.052700470368215" lon="2.409444697559621"><ele>10.0</ele><time>2026-04-30T17:32:51Z</time></trkpt><trkpt lat="51.05272142552512" lon="2.40956372158484"><ele>10.0</ele><time>2026-04-30T17:32:53Z</time></trkpt><trkpt lat="51.052767141584766" lon="2.409645895598169"><ele>10.0</ele><time>2026-04-30T17:32:55Z</time></trkpt><trkpt lat="51.052804668797464" lon="2.409740563611405"><ele>10.0</ele><time>2026-04-30T17:32:57Z</time></trkpt><trkpt lat="51.05283153134065" lon="2.409841257760872"><ele>10.0</ele><time>2026-04-30T17:32:59Z</time></trkpt><trkpt lat="51.05289219614822" lon="2.40994292202047"><ele>10.333333333333334</ele><time>2026-04-30T17:33:02Z</time></trkpt><trkpt lat="51.052931472073304" lon="2.410032004746486"><ele>10.666666666666668</ele><time>2026-04-30T17:33:04Z</time></trkpt><trkpt lat="51.052957924543115" lon="2.4101412254912042"><ele>11.0</ele><time>2026-04-30T17:33:06Z</time></trkpt><trkpt lat="51.05297385490236" lon="2.410271156349255"><ele>11.333333333333334</ele><time>2026-04-30T17:33:09Z</time></trkpt><trkpt lat="51.053003168888594" lon="2.410403643130614"><ele>11.666666666666666</ele><time>2026-04-30T17:33:13Z</time></trkpt><trkpt lat="51.053024119747604" lon="2.4105331009622715"><ele>12.0</ele><time>2026-04-30T17:33:16Z</time></trkpt><trkpt lat="51.053049615415404" lon="2.410640167511479"><ele>12.166666666666666</ele><time>2026-04-30T17:33:19Z</time></trkpt><trkpt lat="51.05309459911301" lon="2.410739911675262"><ele>12.333333333333332</ele><time>2026-04-30T17:33:23.001Z</time></trkpt><trkpt lat="51.05312513228964" lon="2.4108428663610435"><ele>12.5</ele><time>2026-04-30T17:33:29.001Z</time></trkpt><trkpt lat="51.053205143482884" lon="2.4108480570492934"><ele>12.666666666666666</ele><time>2026-04-30T17:33:33.001Z</time></trkpt><trkpt lat="51.05328854260161" lon="2.4107981196358326"><ele>12.833333333333332</ele><time>2026-04-30T17:34:58Z</time></trkpt><trkpt lat="51.0532140627765" lon="2.4107496658767475"><ele>13.0</ele><time>2026-04-30T17:38:05Z</time></trkpt><trkpt lat="51.053150090924646" lon="2.410712151422307"><ele>13.0</ele><time>2026-04-30T17:38:09Z</time></trkpt><trkpt lat="51.05314100700057" lon="2.4105907487885383"><ele>13.0</ele><time>2026-04-30T17:38:12Z</time></trkpt><trkpt lat="51.05311066314291" lon="2.4104965749356047"><ele>13.0</ele><time>2026-04-30T17:38:15Z</time></trkpt><trkpt lat="51.05309757224866" lon="2.4103827924453527"><ele>13.0</ele><time>2026-04-30T17:38:19Z</time></trkpt><trkpt lat="51.053076324188076" lon="2.4102869933829303"><ele>13.0</ele><time>2026-04-30T17:38:22Z</time></trkpt><trkpt lat="51.053050372971654" lon="2.4101674563261337"><ele>13.0</ele><time>2026-04-30T17:38:26Z</time></trkpt><trkpt lat="51.05302935574842" lon="2.410049049431778"><ele>13.0</ele><time>2026-04-30T17:38:29Z</time></trkpt><trkpt lat="51.05300905224355" lon="2.409932364406838"><ele>12.857142857142856</ele><time>2026-04-30T17:38:32Z</time></trkpt><trkpt lat="51.05297903090713" lon="2.409802532081663"><ele>12.714285714285715</ele><time>2026-04-30T17:38:35Z</time></trkpt><trkpt lat="51.05295005931682" lon="2.409681157885853"><ele>12.571428571428571</ele><time>2026-04-30T17:38:38Z</time></trkpt><trkpt lat="51.05293073335596" lon="2.409576966187306"><ele>12.428571428571427</ele><time>2026-04-30T17:38:41Z</time></trkpt><trkpt lat="51.0529031221108" lon="2.409464468778808"><ele>12.285714285714285</ele><time>2026-04-30T17:38:44Z</time></trkpt><trkpt lat="51.052882886618455" lon="2.409364445426997"><ele>12.142857142857142</ele><time>2026-04-30T17:38:46Z</time></trkpt><trkpt lat="51.052853381378135" lon="2.4092640796059044"><ele>12.0</ele><time>2026-04-30T17:38:48Z</time></trkpt><trkpt lat="51.0528233807776" lon="2.409166843508915"><ele>11.666666666666666</ele><time>2026-04-30T17:38:50Z</time></trkpt><trkpt lat="51.05277777446249" lon="2.409068576726782"><ele>11.333333333333334</ele><time>2026-04-30T17:38:52Z</time></trkpt><trkpt lat="51.05274565747541" lon="2.408966466842225"><ele>11.0</ele><time>2026-04-30T17:38:54Z</time></trkpt><trkpt lat="51.052715216867405" lon="2.4088682994029416"><ele>10.666666666666668</ele><time>2026-04-30T17:38:56Z</time></trkpt><trkpt lat="51.05268802754" lon="2.4087530875785035"><ele>10.333333333333334</ele><time>2026-04-30T17:38:58Z</time></trkpt><trkpt lat="51.052658864580195" lon="2.4086499807421364"><ele>10.0</ele><time>2026-04-30T17:39:00Z</time></trkpt><trkpt lat="51.0526351933118" lon="2.4085068994980747"><ele>9.666666666666668</ele><time>2026-04-30T17:39:03Z</time></trkpt><trkpt lat="51.05259855467944" lon="2.4083744378150223"><ele>9.333333333333334</ele><time>2026-04-30T17:39:06Z</time></trkpt><trkpt lat="51.05257716967728" lon="2.4082246642671175"><ele>9.0</ele><time>2026-04-30T17:39:09Z</time></trkpt><trkpt lat="51.05256066429736" lon="2.4081213184636336"><ele>8.666666666666666</ele><time>2026-04-30T17:39:11Z</time></trkpt><trkpt lat="51.052544284135735" lon="2.4080185286173186"><ele>8.333333333333332</ele><time>2026-04-30T17:39:13Z</time></trkpt><trkpt lat="51.05251794893674" lon="2.4078948257312596"><ele>8.0</ele><time>2026-04-30T17:39:15Z</time></trkpt><trkpt lat="51.05251523369244" lon="2.407756864077622"><ele>7.666666666666666</ele><time>2026-04-30T17:39:17Z</time></trkpt><trkpt lat="51.05249097160586" lon="2.4076257148566556"><ele>7.333333333333333</ele><time>2026-04-30T17:39:19Z</time></trkpt><trkpt lat="51.052471316435536" lon="2.4075078855552414"><ele>7.0</ele><time>2026-04-30T17:39:21Z</time></trkpt><trkpt lat="51.05244553077504" lon="2.4074059564355688"><ele>6.666666666666666</ele><time>2026-04-30T17:39:23Z</time></trkpt><trkpt lat="51.05240992324168" lon="2.4073216289566632"><ele>6.333333333333333</ele><time>2026-04-30T17:39:25Z</time></trkpt><trkpt lat="51.05238597294687" lon="2.407198060634556"><ele>6.0</ele><time>2026-04-30T17:39:28Z</time></trkpt><trkpt lat="51.052359190297736" lon="2.407089618330706"><ele>6.833333333333333</ele><time>2026-04-30T17:39:31Z</time></trkpt><trkpt lat="51.05234332557696" lon="2.4069921917092976"><ele>7.666666666666666</ele><time>2026-04-30T17:39:34Z</time></trkpt><trkpt lat="51.052314306676784" lon="2.406858801175453"><ele>8.5</ele><time>2026-04-30T17:39:38Z</time></trkpt><trkpt lat="51.05229307178622" lon="2.4067255665367195"><ele>9.333333333333332</ele><time>2026-04-30T17:39:41Z</time></trkpt><trkpt lat="51.05227162911648" lon="2.4065817271609276"><ele>10.166666666666666</ele><time>2026-04-30T17:39:44Z</time></trkpt><trkpt lat="51.05223631154139" lon="2.4064886739373543"><ele>11.0</ele><time>2026-04-30T17:39:46Z</time></trkpt><trkpt lat="51.05219424295287" lon="2.4063990236823796"><ele>10.666666666666666</ele><time>2026-04-30T17:39:48Z</time></trkpt><trkpt lat="51.05218415462263" lon="2.406293246689094"><ele>10.333333333333332</ele><time>2026-04-30T17:39:50Z</time></trkpt><trkpt lat="51.05215773111583" lon="2.4061794873829134"><ele>10.0</ele><time>2026-04-30T17:39:52Z</time></trkpt><trkpt lat="51.052137195435805" lon="2.406076237685376"><ele>9.666666666666666</ele><time>2026-04-30T17:39:54Z</time></trkpt><trkpt lat="51.052120117543204" lon="2.4059639880578017"><ele>9.333333333333334</ele><time>2026-04-30T17:39:56Z</time></trkpt><trkpt lat="51.05210092142504" lon="2.4058291097173305"><ele>9.0</ele><time>2026-04-30T17:39:58Z</time></trkpt><trkpt lat="51.05207892431125" lon="2.4057013395501023"><ele>9.0</ele><time>2026-04-30T17:40:00Z</time></trkpt><trkpt lat="51.05205565954697" lon="2.4055717708365862"><ele>9.0</ele><time>2026-04-30T17:40:02Z</time></trkpt><trkpt lat="51.05202927547813" lon="2.4054429981033176"><ele>9.0</ele><time>2026-04-30T17:40:04Z</time></trkpt><trkpt lat="51.05200880381634" lon="2.4053005592594716"><ele>9.0</ele><time>2026-04-30T17:40:06Z</time></trkpt><trkpt lat="51.051962611783935" lon="2.405162373103216"><ele>9.0</ele><time>2026-04-30T17:40:08Z</time></trkpt><trkpt lat="51.051946275627905" lon="2.4050270957867426"><ele>9.0</ele><time>2026-04-30T17:40:10Z</time></trkpt><trkpt lat="51.05192462644039" lon="2.4049055774386394"><ele>8.8</ele><time>2026-04-30T17:40:12Z</time></trkpt><trkpt lat="51.05190351483881" lon="2.4047678159595387"><ele>8.600000000000001</ele><time>2026-04-30T17:40:14Z</time></trkpt><trkpt lat="51.05187391882874" lon="2.4046102927030497"><ele>8.4</ele><time>2026-04-30T17:40:16Z</time></trkpt><trkpt lat="51.05185202189758" lon="2.4044529183877366"><ele>8.200000000000001</ele><time>2026-04-30T17:40:18Z</time></trkpt><trkpt lat="51.051831814631385" lon="2.4043007385061"><ele>8.0</ele><time>2026-04-30T17:40:20Z</time></trkpt><trkpt lat="51.05180636885469" lon="2.4041570157882473"><ele>7.999999999999999</ele><time>2026-04-30T17:40:22Z</time></trkpt><trkpt lat="51.05178785274128" lon="2.4040224931566274"><ele>8.0</ele><time>2026-04-30T17:40:24Z</time></trkpt><trkpt lat="51.05175630589075" lon="2.403895303138017"><ele>8.0</ele><time>2026-04-30T17:40:26Z</time></trkpt><trkpt lat="51.05173282877306" lon="2.403773687351448"><ele>8.0</ele><time>2026-04-30T17:40:28Z</time></trkpt><trkpt lat="51.05170804698955" lon="2.403657874388607"><ele>7.999999999999999</ele><time>2026-04-30T17:40:30Z</time></trkpt><trkpt lat="51.05167715680393" lon="2.403553169212684"><ele>8.0</ele><time>2026-04-30T17:40:32Z</time></trkpt><trkpt lat="51.051659881650785" lon="2.4034496482847745"><ele>8.142857142857142</ele><time>2026-04-30T17:40:34Z</time></trkpt><trkpt lat="51.051645389082495" lon="2.4033470344359267"><ele>8.285714285714285</ele><time>2026-04-30T17:40:36Z</time></trkpt><trkpt lat="51.05160936199655" lon="2.4032170827422847"><ele>8.428571428571429</ele><time>2026-04-30T17:40:39Z</time></trkpt><trkpt lat="51.0515905439932" lon="2.40309447216527"><ele>8.571428571428571</ele><time>2026-04-30T17:40:42Z</time></trkpt><trkpt lat="51.051571498307936" lon="2.4029775018450503"><ele>8.714285714285715</ele><time>2026-04-30T17:40:45Z</time></trkpt><trkpt lat="51.05157082101106" lon="2.4028699841479773"><ele>8.857142857142858</ele><time>2026-04-30T17:40:48Z</time></trkpt><trkpt lat="51.05154320690813" lon="2.402778474009647"><ele>9.0</ele><time>2026-04-30T17:40:51Z</time></trkpt><trkpt lat="51.05152317016471" lon="2.402651855360186"><ele>9.285714285714286</ele><time>2026-04-30T17:42:56Z</time></trkpt><trkpt lat="51.05151528105667" lon="2.402547435489221"><ele>9.571428571428571</ele><time>2026-04-30T17:42:58Z</time></trkpt><trkpt lat="51.05150458493834" lon="2.402440460004835"><ele>9.857142857142858</ele><time>2026-04-30T17:43:00Z</time></trkpt><trkpt lat="51.051497482833476" lon="2.4023326763786783"><ele>10.142857142857142</ele><time>2026-04-30T17:43:02Z</time></trkpt><trkpt lat="51.05148209001847" lon="2.4022284651718895"><ele>10.428571428571429</ele><time>2026-04-30T17:43:04Z</time></trkpt><trkpt lat="51.05146425754807" lon="2.4021304502695213"><ele>10.714285714285715</ele><time>2026-04-30T17:43:06Z</time></trkpt><trkpt lat="51.051436672433894" lon="2.402015911248951"><ele>11.0</ele><time>2026-04-30T17:43:08Z</time></trkpt><trkpt lat="51.05140932545211" lon="2.401913609316781"><ele>11.0</ele><time>2026-04-30T17:43:10Z</time></trkpt><trkpt lat="51.051398579725" lon="2.4018138230820223"><ele>11.0</ele><time>2026-04-30T17:43:12Z</time></trkpt><trkpt lat="51.05138416918577" lon="2.4016686581543594"><ele>11.0</ele><time>2026-04-30T17:43:15Z</time></trkpt><trkpt lat="51.051349334537036" lon="2.4015470603865343"><ele>11.0</ele><time>2026-04-30T17:43:18Z</time></trkpt><trkpt lat="51.051331661845566" lon="2.4014408425757128"><ele>11.0</ele><time>2026-04-30T17:43:21Z</time></trkpt><trkpt lat="51.051286772461765" lon="2.4013374624195536"><ele>11.0</ele><time>2026-04-30T17:43:25Z</time></trkpt><trkpt lat="51.051264239906345" lon="2.4012219727227424"><ele>11.0</ele><time>2026-04-30T17:43:28Z</time></trkpt><trkpt lat="51.05124429036189" lon="2.4011009279798414"><ele>11.0</ele><time>2026-04-30T17:43:31Z</time></trkpt><trkpt lat="51.05122299342222" lon="2.400982074931593"><ele>11.0</ele><time>2026-04-30T17:43:34Z</time></trkpt><trkpt lat="51.05120926058999" lon="2.4008591310794545"><ele>11.0</ele><time>2026-04-30T17:43:37Z</time></trkpt><trkpt lat="51.05119822251339" lon="2.4007506649521573"><ele>11.0</ele><time>2026-04-30T17:43:39Z</time></trkpt><trkpt lat="51.05117397677137" lon="2.4006377889342643"><ele>11.0</ele><time>2026-04-30T17:43:41Z</time></trkpt><trkpt lat="51.051159640439415" lon="2.4004924664159337"><ele>11.166666666666666</ele><time>2026-04-30T17:43:43Z</time></trkpt><trkpt lat="51.05113498543069" lon="2.400349161741382"><ele>11.333333333333332</ele><time>2026-04-30T17:43:45Z</time></trkpt><trkpt lat="51.05110655892208" lon="2.4002190910583865"><ele>11.5</ele><time>2026-04-30T17:43:47Z</time></trkpt><trkpt lat="51.05108447546464" lon="2.4000909598782525"><ele>11.666666666666666</ele><time>2026-04-30T17:43:49Z</time></trkpt><trkpt lat="51.05106881463503" lon="2.399971119030631"><ele>11.833333333333334</ele><time>2026-04-30T17:43:51Z</time></trkpt><trkpt lat="51.05106727804233" lon="2.3998561504404377"><ele>12.0</ele><time>2026-04-30T17:43:53Z</time></trkpt><trkpt lat="51.0510455458732" lon="2.399746602832954"><ele>11.833333333333334</ele><time>2026-04-30T17:43:55Z</time></trkpt><trkpt lat="51.051006261842176" lon="2.399608825053911"><ele>11.666666666666666</ele><time>2026-04-30T17:43:58Z</time></trkpt><trkpt lat="51.050997105238075" lon="2.399473083539543"><ele>11.5</ele><time>2026-04-30T17:44:01Z</time></trkpt><trkpt lat="51.05098201455119" lon="2.399351821908911"><ele>11.333333333333332</ele><time>2026-04-30T17:44:04Z</time></trkpt><trkpt lat="51.0509625432332" lon="2.399240835961483"><ele>11.166666666666666</ele><time>2026-04-30T17:44:07Z</time></trkpt><trkpt lat="51.05094027400354" lon="2.3991402140073093"><ele>11.0</ele><time>2026-04-30T17:44:21Z</time></trkpt><trkpt lat="51.05093158521685" lon="2.399031953757357"><ele>11.0</ele><time>2026-04-30T17:44:23Z</time></trkpt><trkpt lat="51.050921460995816" lon="2.3989248408763766"><ele>11.0</ele><time>2026-04-30T17:44:25Z</time></trkpt><trkpt lat="51.05090279276661" lon="2.398828018554876"><ele>11.0</ele><time>2026-04-30T17:44:27Z</time></trkpt><trkpt lat="51.050885622250846" lon="2.398722701639815"><ele>11.0</ele><time>2026-04-30T17:44:29Z</time></trkpt><trkpt lat="51.05087888420208" lon="2.3986169277898877"><ele>11.0</ele><time>2026-04-30T17:44:31Z</time></trkpt><trkpt lat="51.05086181240505" lon="2.3985174115801846"><ele>11.0</ele><time>2026-04-30T17:44:33Z</time></trkpt><trkpt lat="51.05084913883369" lon="2.3984015484518855"><ele>11.0</ele><time>2026-04-30T17:44:35Z</time></trkpt><trkpt lat="51.050844932522715" lon="2.3982732754760487"><ele>10.833333333333332</ele><time>2026-04-30T17:44:37Z</time></trkpt><trkpt lat="51.05084298386497" lon="2.398134519875658"><ele>10.666666666666666</ele><time>2026-04-30T17:44:39Z</time></trkpt><trkpt lat="51.050821908967414" lon="2.3979857737985077"><ele>10.5</ele><time>2026-04-30T17:44:41Z</time></trkpt><trkpt lat="51.05080344189836" lon="2.3978406848846547"><ele>10.333333333333334</ele><time>2026-04-30T17:44:43Z</time></trkpt><trkpt lat="51.050778956956556" lon="2.3976944439203645"><ele>10.166666666666668</ele><time>2026-04-30T17:44:46Z</time></trkpt><trkpt lat="51.050768336959685" lon="2.397577090813608"><ele>10.0</ele><time>2026-04-30T17:44:48Z</time></trkpt><trkpt lat="51.05073617335116" lon="2.397473468260047"><ele>10.0</ele><time>2026-04-30T17:44:50Z</time></trkpt><trkpt lat="51.05072227569922" lon="2.3973693818748516"><ele>10.0</ele><time>2026-04-30T17:44:52Z</time></trkpt><trkpt lat="51.05070106548368" lon="2.397228532882669"><ele>10.0</ele><time>2026-04-30T17:44:55Z</time></trkpt><trkpt lat="51.050691739842726" lon="2.397091022035934"><ele>10.0</ele><time>2026-04-30T17:44:58Z</time></trkpt><trkpt lat="51.05068614261356" lon="2.3969878882488986"><ele>10.0</ele><time>2026-04-30T17:45:00Z</time></trkpt><trkpt lat="51.050666809892576" lon="2.3968883789170117"><ele>10.0</ele><time>2026-04-30T17:45:02Z</time></trkpt><trkpt lat="51.05062133265198" lon="2.3967618870632514"><ele>10.166666666666668</ele><time>2026-04-30T17:45:05Z</time></trkpt><trkpt lat="51.05059358563623" lon="2.3966672732202627"><ele>10.333333333333334</ele><time>2026-04-30T17:45:07Z</time></trkpt><trkpt lat="51.05059336246547" lon="2.396537044357843"><ele>10.5</ele><time>2026-04-30T17:45:09Z</time></trkpt><trkpt lat="51.05060371980289" lon="2.396420767520313"><ele>10.666666666666666</ele><time>2026-04-30T17:45:11Z</time></trkpt><trkpt lat="51.05059630044446" lon="2.3963092086781193"><ele>10.833333333333332</ele><time>2026-04-30T17:45:13Z</time></trkpt><trkpt lat="51.05056484134934" lon="2.3962160587961376"><ele>11.0</ele><time>2026-04-30T17:45:15Z</time></trkpt><trkpt lat="51.05054994914395" lon="2.3960643738244145"><ele>11.0</ele><time>2026-04-30T17:45:18Z</time></trkpt><trkpt lat="51.05054010565449" lon="2.3959456870455402"><ele>11.0</ele><time>2026-04-30T17:45:21Z</time></trkpt><trkpt lat="51.050523170914474" lon="2.3957964367757443"><ele>11.0</ele><time>2026-04-30T17:45:24Z</time></trkpt><trkpt lat="51.05050607835449" lon="2.395698724458768"><ele>11.0</ele><time>2026-04-30T17:45:26Z</time></trkpt><trkpt lat="51.05049167354784" lon="2.395578638828185"><ele>11.0</ele><time>2026-04-30T17:45:28Z</time></trkpt><trkpt lat="51.050489669800896" lon="2.3954579605767115"><ele>11.0</ele><time>2026-04-30T17:45:30Z</time></trkpt><trkpt lat="51.05051179945141" lon="2.3953478129083057"><ele>10.833333333333332</ele><time>2026-04-30T17:45:32Z</time></trkpt><trkpt lat="51.05051517749038" lon="2.395230633687956"><ele>10.666666666666666</ele><time>2026-04-30T17:45:34Z</time></trkpt><trkpt lat="51.050487484232654" lon="2.395125673260206"><ele>10.5</ele><time>2026-04-30T17:45:36Z</time></trkpt><trkpt lat="51.0504689964724" lon="2.395025622142735"><ele>10.333333333333334</ele><time>2026-04-30T17:45:38Z</time></trkpt><trkpt lat="51.05045477573064" lon="2.394881064039736"><ele>10.166666666666668</ele><time>2026-04-30T17:45:41Z</time></trkpt><trkpt lat="51.050435670494906" lon="2.3947717222582257"><ele>10.0</ele><time>2026-04-30T17:45:43Z</time></trkpt><trkpt lat="51.05042205859252" lon="2.394648186295599"><ele>10.0</ele><time>2026-04-30T17:45:45Z</time></trkpt><trkpt lat="51.05040346555567" lon="2.3945466765496692"><ele>10.0</ele><time>2026-04-30T17:45:47Z</time></trkpt><trkpt lat="51.05039840092204" lon="2.3944152188232803"><ele>10.0</ele><time>2026-04-30T17:45:51Z</time></trkpt><trkpt lat="51.05038710997427" lon="2.394306548087514"><ele>10.0</ele><time>2026-04-30T17:45:52.999Z</time></trkpt><trkpt lat="51.050346752674415" lon="2.3941814044698018"><ele>10.0</ele><time>2026-04-30T17:45:55.999Z</time></trkpt><trkpt lat="51.050309202295104" lon="2.394054233343097"><ele>10.0</ele><time>2026-04-30T17:45:59Z</time></trkpt><trkpt lat="51.050316314558465" lon="2.3939267520809375"><ele>9.714285714285714</ele><time>2026-04-30T17:46:02Z</time></trkpt><trkpt lat="51.05028315188271" lon="2.393830215314454"><ele>9.428571428571429</ele><time>2026-04-30T17:46:05Z</time></trkpt><trkpt lat="51.05027064600295" lon="2.393721254275937"><ele>9.142857142857142</ele><time>2026-04-30T17:46:07Z</time></trkpt><trkpt lat="51.05023616663147" lon="2.3936168577613164"><ele>8.857142857142858</ele><time>2026-04-30T17:46:09Z</time></trkpt><trkpt lat="51.050215205146344" lon="2.393508785361809"><ele>8.571428571428571</ele><time>2026-04-30T17:46:11Z</time></trkpt><trkpt lat="51.05019352659144" lon="2.3933885154106367"><ele>8.285714285714285</ele><time>2026-04-30T17:46:13Z</time></trkpt><trkpt lat="51.050172483577114" lon="2.39327146530775"><ele>8.0</ele><time>2026-04-30T17:46:15Z</time></trkpt><trkpt lat="51.05016237834367" lon="2.393154238495919"><ele>7.999999999999999</ele><time>2026-04-30T17:46:17Z</time></trkpt><trkpt lat="51.050143805589826" lon="2.3930409694800194"><ele>8.0</ele><time>2026-04-30T17:46:19Z</time></trkpt><trkpt lat="51.05011527948586" lon="2.3929053433186396"><ele>8.0</ele><time>2026-04-30T17:46:22Z</time></trkpt><trkpt lat="51.050092335359814" lon="2.392782000512727"><ele>8.0</ele><time>2026-04-30T17:46:25Z</time></trkpt><trkpt lat="51.05008749629927" lon="2.392680403374242"><ele>7.999999999999999</ele><time>2026-04-30T17:46:27Z</time></trkpt><trkpt lat="51.050077911429554" lon="2.3925695994184673"><ele>8.0</ele><time>2026-04-30T17:46:29Z</time></trkpt><trkpt lat="51.05006274897871" lon="2.3924587878271253"><ele>7.999999999999999</ele><time>2026-04-30T17:46:31Z</time></trkpt><trkpt lat="51.05004401611602" lon="2.392363115099142"><ele>8.0</ele><time>2026-04-30T17:46:33Z</time></trkpt><trkpt lat="51.05001680608658" lon="2.3922223028117644"><ele>8.0</ele><time>2026-04-30T17:46:36Z</time></trkpt><trkpt lat="51.05000104673671" lon="2.3921014100562124"><ele>8.0</ele><time>2026-04-30T17:46:39Z</time></trkpt><trkpt lat="51.04999168998895" lon="2.391982917974874"><ele>7.999999999999999</ele><time>2026-04-30T17:46:42Z</time></trkpt><trkpt lat="51.04997310676777" lon="2.3918720598733643"><ele>8.0</ele><time>2026-04-30T17:46:45Z</time></trkpt><trkpt lat="51.0499621193752" lon="2.391745395560963"><ele>8.333333333333332</ele><time>2026-04-30T17:46:48Z</time></trkpt><trkpt lat="51.049942251160765" lon="2.391624905867491"><ele>8.666666666666666</ele><time>2026-04-30T17:46:51Z</time></trkpt><trkpt lat="51.04993766637261" lon="2.3915007878722916"><ele>9.0</ele><time>2026-04-30T17:46:54Z</time></trkpt><trkpt lat="51.049905418705535" lon="2.391388720828939"><ele>9.333333333333334</ele><time>2026-04-30T17:46:57Z</time></trkpt><trkpt lat="51.0498791675384" lon="2.3912873587599175"><ele>9.666666666666668</ele><time>2026-04-30T17:47:00Z</time></trkpt><trkpt lat="51.0498664338311" lon="2.3911578597286685"><ele>10.0</ele><time>2026-04-30T17:47:04Z</time></trkpt><trkpt lat="51.04986217644451" lon="2.3910481983179315"><ele>10.0</ele><time>2026-04-30T17:47:08Z</time></trkpt><trkpt lat="51.049867402595254" lon="2.390940187094163"><ele>10.0</ele><time>2026-04-30T17:47:13Z</time></trkpt><trkpt lat="51.04982877979306" lon="2.3908465938122583"><ele>10.0</ele><time>2026-04-30T17:47:17Z</time></trkpt><trkpt lat="51.049820120667135" lon="2.390732163903312"><ele>10.0</ele><time>2026-04-30T17:47:20Z</time></trkpt><trkpt lat="51.04980274016016" lon="2.3906304503953075"><ele>10.0</ele><time>2026-04-30T17:47:23Z</time></trkpt><trkpt lat="51.0497826768954" lon="2.3905234641476154"><ele>10.0</ele><time>2026-04-30T17:47:26Z</time></trkpt><trkpt lat="51.0497550753878" lon="2.3903854095474206"><ele>10.0</ele><time>2026-04-30T17:47:29Z</time></trkpt><trkpt lat="51.04974642574021" lon="2.3902363186541478"><ele>9.833333333333334</ele><time>2026-04-30T17:47:32Z</time></trkpt><trkpt lat="51.04972008591678" lon="2.390119158735591"><ele>9.666666666666668</ele><time>2026-04-30T17:47:35Z</time></trkpt><trkpt lat="51.0497114496357" lon="2.3900080071961254"><ele>9.5</ele><time>2026-04-30T17:47:38Z</time></trkpt><trkpt lat="51.04969136281438" lon="2.389859121057246"><ele>9.333333333333334</ele><time>2026-04-30T17:47:41Z</time></trkpt><trkpt lat="51.049682973011556" lon="2.389728491816418"><ele>9.166666666666666</ele><time>2026-04-30T17:47:44Z</time></trkpt><trkpt lat="51.04967432212456" lon="2.3896025776484158"><ele>9.0</ele><time>2026-04-30T17:47:47Z</time></trkpt><trkpt lat="51.04971590728923" lon="2.389459886194753"><ele>9.0</ele><time>2026-04-30T17:47:50Z</time></trkpt><trkpt lat="51.049720197319445" lon="2.389339185251502"><ele>9.0</ele><time>2026-04-30T17:47:52Z</time></trkpt><trkpt lat="51.04972098271184" lon="2.3891999008801204"><ele>9.0</ele><time>2026-04-30T17:47:54Z</time></trkpt><trkpt lat="51.0497325016401" lon="2.3890642479214614"><ele>9.0</ele><time>2026-04-30T17:47:56Z</time></trkpt><trkpt lat="51.049732439887805" lon="2.3889199523605034"><ele>9.0</ele><time>2026-04-30T17:47:58Z</time></trkpt><trkpt lat="51.04971718297859" lon="2.3887736004803917"><ele>9.0</ele><time>2026-04-30T17:48:00Z</time></trkpt><trkpt lat="51.04970457283725" lon="2.3886381251092543"><ele>8.857142857142858</ele><time>2026-04-30T17:48:02Z</time></trkpt><trkpt lat="51.04967724118707" lon="2.3885158282413226"><ele>8.714285714285715</ele><time>2026-04-30T17:48:03.999Z</time></trkpt><trkpt lat="51.04965583873617" lon="2.3884029263004"><ele>8.571428571428571</ele><time>2026-04-30T17:48:05.999Z</time></trkpt><trkpt lat="51.04963769690933" lon="2.38829333282811"><ele>8.428571428571429</ele><time>2026-04-30T17:48:07.999Z</time></trkpt><trkpt lat="51.04962637414054" lon="2.3881896255123563"><ele>8.285714285714285</ele><time>2026-04-30T17:48:09.999Z</time></trkpt><trkpt lat="51.04961292939356" lon="2.388081414324112"><ele>8.142857142857142</ele><time>2026-04-30T17:48:11.999Z</time></trkpt><trkpt lat="51.049597977197756" lon="2.387969061937576"><ele>8.0</ele><time>2026-04-30T17:48:13.999Z</time></trkpt><trkpt lat="51.04959835839114" lon="2.3878402494426196"><ele>7.999999999999999</ele><time>2026-04-30T17:48:16Z</time></trkpt><trkpt lat="51.049575967078134" lon="2.3877169923085244"><ele>8.0</ele><time>2026-04-30T17:48:18Z</time></trkpt><trkpt lat="51.04954157873719" lon="2.387585964836251"><ele>8.0</ele><time>2026-04-30T17:48:20Z</time></trkpt><trkpt lat="51.049527921352954" lon="2.3874713664986924"><ele>8.0</ele><time>2026-04-30T17:48:22Z</time></trkpt><trkpt lat="51.04950813175448" lon="2.387356868146261"><ele>7.999999999999999</ele><time>2026-04-30T17:48:24Z</time></trkpt><trkpt lat="51.049488086312316" lon="2.387251486889643"><ele>8.0</ele><time>2026-04-30T17:48:26Z</time></trkpt><trkpt lat="51.04947553446134" lon="2.387146791316684"><ele>7.499999999999999</ele><time>2026-04-30T17:48:28Z</time></trkpt><trkpt lat="51.04947624462195" lon="2.3870076473475783"><ele>7.0</ele><time>2026-04-30T17:48:31Z</time></trkpt><trkpt lat="51.04944660898267" lon="2.386909154297745"><ele>6.5</ele><time>2026-04-30T17:48:33Z</time></trkpt><trkpt lat="51.04944090417399" lon="2.3867927334353283"><ele>6.0</ele><time>2026-04-30T17:48:35Z</time></trkpt><trkpt lat="51.04943143574473" lon="2.386659202645522"><ele>5.5</ele><time>2026-04-30T17:48:37Z</time></trkpt><trkpt lat="51.04940878772039" lon="2.3865459355799787"><ele>5.0</ele><time>2026-04-30T17:48:39Z</time></trkpt><trkpt lat="51.049381902453646" lon="2.3864505986631506"><ele>5.0</ele><time>2026-04-30T17:48:41Z</time></trkpt><trkpt lat="51.04936469737292" lon="2.3863491432247708"><ele>5.0</ele><time>2026-04-30T17:48:43Z</time></trkpt><trkpt lat="51.04933906487934" lon="2.386246594342514"><ele>5.0</ele><time>2026-04-30T17:48:45Z</time></trkpt><trkpt lat="51.04932093188055" lon="2.386104759274805"><ele>5.0</ele><time>2026-04-30T17:48:48Z</time></trkpt><trkpt lat="51.04929512294818" lon="2.3860063846116604"><ele>5.0</ele><time>2026-04-30T17:48:50Z</time></trkpt><trkpt lat="51.04928133010872" lon="2.3858958866653843"><ele>5.0</ele><time>2026-04-30T17:48:52Z</time></trkpt><trkpt lat="51.04926589961647" lon="2.3857835345021683"><ele>5.0</ele><time>2026-04-30T17:48:54Z</time></trkpt><trkpt lat="51.04925056378999" lon="2.3856721992367316"><ele>5.0</ele><time>2026-04-30T17:48:56Z</time></trkpt><trkpt lat="51.04922671869381" lon="2.385543179145162"><ele>5.0</ele><time>2026-04-30T17:48:58Z</time></trkpt><trkpt lat="51.049206895763795" lon="2.3854123187830183"><ele>5.0</ele><time>2026-04-30T17:49:00Z</time></trkpt><trkpt lat="51.04918285548649" lon="2.3852853058763084"><ele>5.0</ele><time>2026-04-30T17:49:02Z</time></trkpt><trkpt lat="51.049173033493595" lon="2.38514822583716"><ele>5.0</ele><time>2026-04-30T17:49:05Z</time></trkpt><trkpt lat="51.04914797943799" lon="2.385031090752454"><ele>5.0</ele><time>2026-04-30T17:49:07Z</time></trkpt><trkpt lat="51.04912216776726" lon="2.38487070370729"><ele>5.333333333333334</ele><time>2026-04-30T17:49:09Z</time></trkpt><trkpt lat="51.04909111056706" lon="2.384751597828528"><ele>5.666666666666667</ele><time>2026-04-30T17:49:11Z</time></trkpt><trkpt lat="51.049070432099505" lon="2.3846454759325173"><ele>6.0</ele><time>2026-04-30T17:49:13Z</time></trkpt><trkpt lat="51.04905426075893" lon="2.3845203251444613"><ele>6.333333333333334</ele><time>2026-04-30T17:49:15Z</time></trkpt><trkpt lat="51.049040639901996" lon="2.3843986264108095"><ele>6.666666666666667</ele><time>2026-04-30T17:49:17Z</time></trkpt><trkpt lat="51.049017864358376" lon="2.384278504347999"><ele>7.0</ele><time>2026-04-30T17:49:19Z</time></trkpt><trkpt lat="51.04899220497203" lon="2.3841732223618557"><ele>7.0</ele><time>2026-04-30T17:49:21Z</time></trkpt><trkpt lat="51.048973666655044" lon="2.3840671898781953"><ele>7.0</ele><time>2026-04-30T17:49:23Z</time></trkpt><trkpt lat="51.048957810906366" lon="2.383968276071566"><ele>7.0</ele><time>2026-04-30T17:49:25Z</time></trkpt><trkpt lat="51.04893712498295" lon="2.3838592337136433"><ele>7.0</ele><time>2026-04-30T17:49:27Z</time></trkpt><trkpt lat="51.048921197219904" lon="2.383742721016345"><ele>7.0</ele><time>2026-04-30T17:49:29Z</time></trkpt><trkpt lat="51.04889902496121" lon="2.3836199161843714"><ele>7.0</ele><time>2026-04-30T17:49:31Z</time></trkpt><trkpt lat="51.04886871621133" lon="2.383495705133539"><ele>7.0</ele><time>2026-04-30T17:49:33Z</time></trkpt><trkpt lat="51.04884258698216" lon="2.3833664038443305"><ele>6.833333333333334</ele><time>2026-04-30T17:49:35Z</time></trkpt><trkpt lat="51.048810343357935" lon="2.383261737324159"><ele>6.666666666666667</ele><time>2026-04-30T17:49:37Z</time></trkpt><trkpt lat="51.048801961573716" lon="2.383159114227695"><ele>6.5</ele><time>2026-04-30T17:49:39Z</time></trkpt><trkpt lat="51.048783385984095" lon="2.3829976302051454"><ele>6.333333333333334</ele><time>2026-04-30T17:49:42Z</time></trkpt><trkpt lat="51.04874865044426" lon="2.3828804129894388"><ele>6.166666666666667</ele><time>2026-04-30T17:49:44Z</time></trkpt><trkpt lat="51.04873216592166" lon="2.3827621279689537"><ele>6.0</ele><time>2026-04-30T17:49:45.999Z</time></trkpt><trkpt lat="51.04870817443964" lon="2.3826477335910528"><ele>5.999999999999999</ele><time>2026-04-30T17:49:47.999Z</time></trkpt><trkpt lat="51.048681933131164" lon="2.382537091719291"><ele>6.0</ele><time>2026-04-30T17:49:49.999Z</time></trkpt><trkpt lat="51.04866219806448" lon="2.382436874790862"><ele>6.0</ele><time>2026-04-30T17:49:51.999Z</time></trkpt><trkpt lat="51.04864932990154" lon="2.382328514851755"><ele>6.0</ele><time>2026-04-30T17:49:53.999Z</time></trkpt><trkpt lat="51.04862705491663" lon="2.3822193417990243"><ele>6.0</ele><time>2026-04-30T17:49:55.999Z</time></trkpt><trkpt lat="51.04860341043325" lon="2.3821149913985735"><ele>5.999999999999999</ele><time>2026-04-30T17:49:57.999Z</time></trkpt><trkpt lat="51.0485944720235" lon="2.382002859800829"><ele>6.0</ele><time>2026-04-30T17:50:00.999Z</time></trkpt><trkpt lat="51.048577581574264" lon="2.3818778150164865"><ele>6.0</ele><time>2026-04-30T17:50:03.999Z</time></trkpt><trkpt lat="51.04857440812356" lon="2.3817436592436243"><ele>6.0</ele><time>2026-04-30T17:50:06.999Z</time></trkpt><trkpt lat="51.04858492411113" lon="2.3816136949933564"><ele>6.0</ele><time>2026-04-30T17:50:10Z</time></trkpt><trkpt lat="51.04855988939846" lon="2.381483072803792"><ele>6.0</ele><time>2026-04-30T17:50:12Z</time></trkpt><trkpt lat="51.048520901151726" lon="2.3813922315365907"><ele>6.0</ele><time>2026-04-30T17:50:14Z</time></trkpt><trkpt lat="51.04850011058646" lon="2.3812701415463726"><ele>6.0</ele><time>2026-04-30T17:50:16Z</time></trkpt><trkpt lat="51.048476646580994" lon="2.381168885241103"><ele>6.0</ele><time>2026-04-30T17:50:18Z</time></trkpt><trkpt lat="51.04848718392405" lon="2.381036052714668"><ele>6.0</ele><time>2026-04-30T17:50:20Z</time></trkpt><trkpt lat="51.0484688725589" lon="2.380903239680579"><ele>6.0</ele><time>2026-04-30T17:50:21Z</time></trkpt><trkpt lat="51.0484168111274" lon="2.380761165127799"><ele>6.0</ele><time>2026-04-30T17:50:23Z</time></trkpt><trkpt lat="51.04838251563729" lon="2.3805969811292207"><ele>6.0</ele><time>2026-04-30T17:50:25Z</time></trkpt><trkpt lat="51.04835124546782" lon="2.3804276058895457"><ele>6.166666666666667</ele><time>2026-04-30T17:50:27Z</time></trkpt><trkpt lat="51.04835339389609" lon="2.380324783057708"><ele>6.333333333333334</ele><time>2026-04-30T17:50:28Z</time></trkpt><trkpt lat="51.04834696900052" lon="2.380221164837962"><ele>6.5</ele><time>2026-04-30T17:50:29Z</time></trkpt><trkpt lat="51.04832919762611" lon="2.3800441034929887"><ele>6.666666666666667</ele><time>2026-04-30T17:50:31Z</time></trkpt><trkpt lat="51.0483090630305" lon="2.3799309379683216"><ele>6.833333333333334</ele><time>2026-04-30T17:50:33Z</time></trkpt><trkpt lat="51.04829190969439" lon="2.379739976405419"><ele>7.0</ele><time>2026-04-30T17:50:36Z</time></trkpt><trkpt lat="51.0482589934957" lon="2.379548291207616"><ele>6.333333333333334</ele><time>2026-04-30T17:50:38Z</time></trkpt><trkpt lat="51.04823091280008" lon="2.379393690626106"><ele>5.666666666666667</ele><time>2026-04-30T17:50:40Z</time></trkpt><trkpt lat="51.04821132383063" lon="2.3792566650830107"><ele>5.0</ele><time>2026-04-30T17:50:42Z</time></trkpt><trkpt lat="51.04819376211226" lon="2.379134191653284"><ele>4.333333333333334</ele><time>2026-04-30T17:50:44Z</time></trkpt><trkpt lat="51.048178353553574" lon="2.3790331325844565"><ele>3.666666666666667</ele><time>2026-04-30T17:50:46Z</time></trkpt><trkpt lat="51.04816311528411" lon="2.378916919603373"><ele>3.0</ele><time>2026-04-30T17:50:48Z</time></trkpt><trkpt lat="51.04814133988479" lon="2.3788015543755727"><ele>3.0</ele><time>2026-04-30T17:50:50Z</time></trkpt><trkpt lat="51.048124446007115" lon="2.3786862228975707"><ele>3.0</ele><time>2026-04-30T17:50:52Z</time></trkpt><trkpt lat="51.0481016136325" lon="2.3785283293336392"><ele>3.0</ele><time>2026-04-30T17:50:55Z</time></trkpt><trkpt lat="51.04808558829897" lon="2.3784191544555306"><ele>3.0</ele><time>2026-04-30T17:50:57Z</time></trkpt><trkpt lat="51.04806188963443" lon="2.378305954290469"><ele>3.0</ele><time>2026-04-30T17:50:59Z</time></trkpt><trkpt lat="51.04805476637079" lon="2.3782049239311385"><ele>3.0</ele><time>2026-04-30T17:51:01Z</time></trkpt><trkpt lat="51.0480570816845" lon="2.378082826179831"><ele>3.0</ele><time>2026-04-30T17:51:04Z</time></trkpt><trkpt lat="51.04801530404487" lon="2.377970847239748"><ele>3.0</ele><time>2026-04-30T17:51:08Z</time></trkpt><trkpt lat="51.047952788487564" lon="2.378045466600197"><ele>3.0</ele><time>2026-04-30T17:51:12Z</time></trkpt><trkpt lat="51.04792407333513" lon="2.378142122361579"><ele>3.0</ele><time>2026-04-30T17:51:15Z</time></trkpt><trkpt lat="51.047887376036925" lon="2.378226770354018"><ele>3.0</ele><time>2026-04-30T17:51:18Z</time></trkpt><trkpt lat="51.04785186798219" lon="2.3783336206252153"><ele>3.0</ele><time>2026-04-30T17:51:21Z</time></trkpt><trkpt lat="51.047807459560836" lon="2.378447205723305"><ele>3.0</ele><time>2026-04-30T17:51:24Z</time></trkpt><trkpt lat="51.04774215672274" lon="2.378529814284741"><ele>3.0</ele><time>2026-04-30T17:51:27Z</time></trkpt><trkpt lat="51.04769482830678" lon="2.378616485113995"><ele>3.0</ele><time>2026-04-30T17:51:30Z</time></trkpt><trkpt lat="51.04764844568116" lon="2.3787197707966956"><ele>3.0</ele><time>2026-04-30T17:51:33Z</time></trkpt><trkpt lat="51.04759920669392" lon="2.378805087864284"><ele>3.0</ele><time>2026-04-30T17:51:36Z</time></trkpt><trkpt lat="51.047553513629744" lon="2.3789176406811627"><ele>3.0</ele><time>2026-04-30T17:51:39Z</time></trkpt><trkpt lat="51.04751272234197" lon="2.3790487695530644"><ele>3.0</ele><time>2026-04-30T17:51:42Z</time></trkpt><trkpt lat="51.047467016827156" lon="2.3791483987693014"><ele>3.0</ele><time>2026-04-30T17:51:45Z</time></trkpt><trkpt lat="51.047432805817486" lon="2.3792671586667864"><ele>3.0</ele><time>2026-04-30T17:51:48Z</time></trkpt><trkpt lat="51.047404078873896" lon="2.3793996636555677"><ele>3.0</ele><time>2026-04-30T17:51:51Z</time></trkpt><trkpt lat="51.047377729996875" lon="2.3794912672488535"><ele>3.0</ele><time>2026-04-30T17:51:53Z</time></trkpt><trkpt lat="51.04734912492743" lon="2.379626110798054"><ele>3.0</ele><time>2026-04-30T17:51:56Z</time></trkpt><trkpt lat="51.04734793794281" lon="2.3797641603602395"><ele>3.3333333333333335</ele><time>2026-04-30T17:51:59Z</time></trkpt><trkpt lat="51.047303665457086" lon="2.3798585089855697"><ele>3.666666666666667</ele><time>2026-04-30T17:52:02Z</time></trkpt><trkpt lat="51.04727356443843" lon="2.379719096276468"><ele>4.0</ele><time>2026-04-30T17:52:05Z</time></trkpt><trkpt lat="51.04728169868637" lon="2.379611066867863"><ele>4.333333333333334</ele><time>2026-04-30T17:52:07Z</time></trkpt><trkpt lat="51.0473009250146" lon="2.3794941804416747"><ele>4.666666666666667</ele><time>2026-04-30T17:52:09Z</time></trkpt><trkpt lat="51.04734455058039" lon="2.3793740275509285"><ele>5.0</ele><time>2026-04-30T17:52:11Z</time></trkpt><trkpt lat="51.047382512281615" lon="2.3792286295079137"><ele>5.0</ele><time>2026-04-30T17:52:13Z</time></trkpt><trkpt lat="51.04741402120985" lon="2.379079281368992"><ele>5.0</ele><time>2026-04-30T17:52:15Z</time></trkpt><trkpt lat="51.047396042610146" lon="2.378974771945118"><ele>5.0</ele><time>2026-04-30T17:52:16.999Z</time></trkpt><trkpt lat="51.04733079973652" lon="2.3789627554500035"><ele>5.0</ele><time>2026-04-30T17:52:18.999Z</time></trkpt><trkpt lat="51.04727443080097" lon="2.3790639464036114"><ele>5.0</ele><time>2026-04-30T17:52:23Z</time></trkpt><trkpt lat="51.04725494311331" lon="2.379196141407728"><ele>5.0</ele><time>2026-04-30T17:52:26Z</time></trkpt><trkpt lat="51.047212386138455" lon="2.379282833657987"><ele>5.0</ele><time>2026-04-30T17:52:28Z</time></trkpt><trkpt lat="51.0471720239811" lon="2.379388117430608"><ele>5.0</ele><time>2026-04-30T17:52:30Z</time></trkpt><trkpt lat="51.047134957451334" lon="2.379481283780083"><ele>5.0</ele><time>2026-04-30T17:52:33Z</time></trkpt><trkpt lat="51.04707053822585" lon="2.379542912679366"><ele>5.0</ele><time>2026-04-30T17:52:35Z</time></trkpt><trkpt lat="51.047047178590354" lon="2.37964007455867"><ele>5.0</ele><time>2026-04-30T17:52:37Z</time></trkpt><trkpt lat="51.04701477488487" lon="2.379764788079624"><ele>5.0</ele><time>2026-04-30T17:52:39Z</time></trkpt><trkpt lat="51.04699252853763" lon="2.379864443451398"><ele>5.0</ele><time>2026-04-30T17:52:41Z</time></trkpt><trkpt lat="51.04692685430412" lon="2.3798780116403813"><ele>5.0</ele><time>2026-04-30T17:52:44Z</time></trkpt><trkpt lat="51.046903376035615" lon="2.3799857517444227"><ele>5.0</ele><time>2026-04-30T17:52:50Z</time></trkpt><trkpt lat="51.046962557531984" lon="2.3800613344836656"><ele>5.0</ele><time>2026-04-30T17:52:52Z</time></trkpt><trkpt lat="51.04698085614819" lon="2.38020104821289"><ele>5.0</ele><time>2026-04-30T17:52:55Z</time></trkpt><trkpt lat="51.04699590399455" lon="2.380354088495347"><ele>5.0</ele><time>2026-04-30T17:52:58Z</time></trkpt><trkpt lat="51.04702694919491" lon="2.3804801271893816"><ele>5.0</ele><time>2026-04-30T17:53:00Z</time></trkpt><trkpt lat="51.047053262692835" lon="2.380573831748325"><ele>5.0</ele><time>2026-04-30T17:53:02Z</time></trkpt><trkpt lat="51.04709170256238" lon="2.38069408444898"><ele>5.0</ele><time>2026-04-30T17:53:05Z</time></trkpt><trkpt lat="51.04710916943242" lon="2.380803691369892"><ele>5.0</ele><time>2026-04-30T17:53:07Z</time></trkpt><trkpt lat="51.04713782044978" lon="2.3809376379559857"><ele>5.0</ele><time>2026-04-30T17:53:09Z</time></trkpt><trkpt lat="51.04716216768339" lon="2.3810741739191412"><ele>5.0</ele><time>2026-04-30T17:53:11Z</time></trkpt><trkpt lat="51.0471628730444" lon="2.381192688936743"><ele>5.0</ele><time>2026-04-30T17:53:13Z</time></trkpt><trkpt lat="51.047140201043234" lon="2.381316659894514"><ele>5.0</ele><time>2026-04-30T17:53:15Z</time></trkpt><trkpt lat="51.047110578004606" lon="2.3814207604407214"><ele>5.0</ele><time>2026-04-30T17:53:18Z</time></trkpt><trkpt lat="51.04703045518616" lon="2.381507434010568"><ele>5.0</ele><time>2026-04-30T17:53:21Z</time></trkpt><trkpt lat="51.04695849705325" lon="2.381555992656433"><ele>5.0</ele><time>2026-04-30T17:53:23Z</time></trkpt><trkpt lat="51.04691123051462" lon="2.3816599520912356"><ele>5.0</ele><time>2026-04-30T17:53:25Z</time></trkpt><trkpt lat="51.046885112608706" lon="2.381768779152983"><ele>5.0</ele><time>2026-04-30T17:53:27Z</time></trkpt><trkpt lat="51.046853485190155" lon="2.3818757121953773"><ele>5.0</ele><time>2026-04-30T17:53:29Z</time></trkpt><trkpt lat="51.04680424161467" lon="2.38199261201124"><ele>5.0</ele><time>2026-04-30T17:53:32Z</time></trkpt><trkpt lat="51.04675904444165" lon="2.3820769541360867"><ele>5.0</ele><time>2026-04-30T17:53:35Z</time></trkpt><trkpt lat="51.046703664991185" lon="2.3821614313736226"><ele>5.0</ele><time>2026-04-30T17:53:39Z</time></trkpt><trkpt lat="51.04663313776251" lon="2.382182395007067"><ele>5.0</ele><time>2026-04-30T17:53:42Z</time></trkpt><trkpt lat="51.046590854378586" lon="2.382102190101707"><ele>5.0</ele><time>2026-04-30T17:53:46Z</time></trkpt><trkpt lat="51.0465240450063" lon="2.382034361322397"><ele>5.0</ele><time>2026-04-30T17:53:50Z</time></trkpt><trkpt lat="51.04647908372069" lon="2.381934914255816"><ele>5.0</ele><time>2026-04-30T17:53:54Z</time></trkpt><trkpt lat="51.04651731011935" lon="2.3818454268172964"><ele>5.0</ele><time>2026-04-30T17:53:58Z</time></trkpt><trkpt lat="51.046584304254615" lon="2.3818498030018835"><ele>5.0</ele><time>2026-04-30T17:54:01Z</time></trkpt><trkpt lat="51.046649075740504" lon="2.381833383094604"><ele>5.0</ele><time>2026-04-30T17:54:04Z</time></trkpt><trkpt lat="51.04664003722917" lon="2.3817323327932787"><ele>5.0</ele><time>2026-04-30T17:54:07Z</time></trkpt><trkpt lat="51.04656697643079" lon="2.3817088648745233"><ele>5.0</ele><time>2026-04-30T17:54:10Z</time></trkpt><trkpt lat="51.04651468204842" lon="2.3816489702857555"><ele>5.142857142857142</ele><time>2026-04-30T17:54:14Z</time></trkpt><trkpt lat="51.046459000011275" lon="2.381545082138851"><ele>5.285714285714286</ele><time>2026-04-30T17:54:19Z</time></trkpt><trkpt lat="51.04640366365158" lon="2.3814774026188252"><ele>5.428571428571429</ele><time>2026-04-30T17:54:22.999Z</time></trkpt><trkpt lat="51.04634144650364" lon="2.381447026126042"><ele>5.571428571428571</ele><time>2026-04-30T17:54:27.999Z</time></trkpt><trkpt lat="51.04641970250114" lon="2.3814886921515432"><ele>5.714285714285714</ele><time>2026-04-30T17:54:32.999Z</time></trkpt><trkpt lat="51.04647168173633" lon="2.3815479078433315"><ele>5.857142857142857</ele><time>2026-04-30T17:54:36.999Z</time></trkpt><trkpt lat="51.04640956845604" lon="2.3816091856513566"><ele>6.0</ele><time>2026-04-30T17:54:41.999Z</time></trkpt><trkpt lat="51.04634735327287" lon="2.3815858391535425"><ele>5.999999999999999</ele><time>2026-04-30T17:54:43.999Z</time></trkpt><trkpt lat="51.04627926954467" lon="2.3815581318639927"><ele>6.0</ele><time>2026-04-30T17:54:45.999Z</time></trkpt><trkpt lat="51.04621022123024" lon="2.381573543749913"><ele>6.0</ele><time>2026-04-30T17:54:47.999Z</time></trkpt><trkpt lat="51.04614525459047" lon="2.3815582122605674"><ele>6.0</ele><time>2026-04-30T17:54:49.999Z</time></trkpt><trkpt lat="51.04606115345427" lon="2.3815666273703644"><ele>6.0</ele><time>2026-04-30T17:54:52.999Z</time></trkpt><trkpt lat="51.045985208522" lon="2.38157292278136"><ele>5.999999999999999</ele><time>2026-04-30T17:54:55.999Z</time></trkpt><trkpt lat="51.04591752834547" lon="2.3815737566112603"><ele>6.0</ele><time>2026-04-30T17:54:57.999Z</time></trkpt><trkpt lat="51.045836485527076" lon="2.3816261543440733"><ele>6.166666666666667</ele><time>2026-04-30T17:55:00.999Z</time></trkpt><trkpt lat="51.04577149151523" lon="2.3816407495760985"><ele>6.333333333333334</ele><time>2026-04-30T17:55:02.999Z</time></trkpt><trkpt lat="51.045733228054054" lon="2.381758259947147"><ele>6.5</ele><time>2026-04-30T17:55:04.999Z</time></trkpt><trkpt lat="51.04570760226237" lon="2.3818707789632683"><ele>6.666666666666667</ele><time>2026-04-30T17:55:06.999Z</time></trkpt><trkpt lat="51.045629176015524" lon="2.381865255281806"><ele>6.833333333333334</ele><time>2026-04-30T17:55:10.999Z</time></trkpt><trkpt lat="51.04555048182376" lon="2.3819338737397913"><ele>7.0</ele><time>2026-04-30T17:55:13.999Z</time></trkpt><trkpt lat="51.045494213966755" lon="2.3820019606189233"><ele>7.0</ele><time>2026-04-30T17:55:15.999Z</time></trkpt><trkpt lat="51.04541740504549" lon="2.382063180747186"><ele>7.0</ele><time>2026-04-30T17:55:19.999Z</time></trkpt><trkpt lat="51.04535399414299" lon="2.382129779601158"><ele>7.0</ele><time>2026-04-30T17:55:23.999Z</time></trkpt><trkpt lat="51.04531783996363" lon="2.382213211767493"><ele>7.0</ele><time>2026-04-30T17:55:26.999Z</time></trkpt><trkpt lat="51.0452646678443" lon="2.382282883587055"><ele>7.0</ele><time>2026-04-30T17:55:29.999Z</time></trkpt><trkpt lat="51.04520843712081" lon="2.382330335791225"><ele>7.0</ele><time>2026-04-30T17:55:32.999Z</time></trkpt><trkpt lat="51.045168981419465" lon="2.3824205591205088"><ele>7.0</ele><time>2026-04-30T17:55:35.999Z</time></trkpt><trkpt lat="51.04512922161398" lon="2.382504211627062"><ele>7.0</ele><time>2026-04-30T17:55:38.999Z</time></trkpt><trkpt lat="51.045079798536115" lon="2.382579831565837"><ele>7.0</ele><time>2026-04-30T17:55:41.999Z</time></trkpt><trkpt lat="51.04503031209746" lon="2.382664715980015"><ele>7.0</ele><time>2026-04-30T17:55:45.999Z</time></trkpt><trkpt lat="51.044965696140395" lon="2.382737662681315"><ele>7.0</ele><time>2026-04-30T17:55:48.999Z</time></trkpt><trkpt lat="51.04490617362168" lon="2.382780825554342"><ele>7.0</ele><time>2026-04-30T17:55:51.999Z</time></trkpt><trkpt lat="51.04483212423531" lon="2.382813277738891"><ele>7.0</ele><time>2026-04-30T17:55:53.999Z</time></trkpt><trkpt lat="51.044747727829666" lon="2.38282009708303"><ele>7.0</ele><time>2026-04-30T17:55:56Z</time></trkpt><trkpt lat="51.044643737554715" lon="2.3828076537296026"><ele>6.833333333333334</ele><time>2026-04-30T17:55:58Z</time></trkpt><trkpt lat="51.04454500375916" lon="2.3828151780570646"><ele>6.666666666666667</ele><time>2026-04-30T17:56:00Z</time></trkpt><trkpt lat="51.044482627339" lon="2.3828695858692233"><ele>6.5</ele><time>2026-04-30T17:56:02Z</time></trkpt><trkpt lat="51.044422850536336" lon="2.3829450807364507"><ele>6.333333333333334</ele><time>2026-04-30T17:56:04Z</time></trkpt><trkpt lat="51.044396636891854" lon="2.3831094556129266"><ele>6.166666666666667</ele><time>2026-04-30T17:56:06Z</time></trkpt><trkpt lat="51.04434406956859" lon="2.3831938519281537"><ele>6.0</ele><time>2026-04-30T17:56:07Z</time></trkpt><trkpt lat="51.04425799765452" lon="2.3832671407264425"><ele>6.0</ele><time>2026-04-30T17:56:09Z</time></trkpt><trkpt lat="51.04414847326323" lon="2.3832555173810883"><ele>6.0</ele><time>2026-04-30T17:56:11Z</time></trkpt><trkpt lat="51.0440572494004" lon="2.38332984286733"><ele>6.0</ele><time>2026-04-30T17:56:13Z</time></trkpt><trkpt lat="51.044025709577916" lon="2.3834266293816455"><ele>6.0</ele><time>2026-04-30T17:56:15Z</time></trkpt><trkpt lat="51.04399122006556" lon="2.383327916022365"><ele>6.0</ele><time>2026-04-30T18:04:55.002Z</time></trkpt><trkpt lat="51.043925310434815" lon="2.383286833181436"><ele>6.0</ele><time>2026-04-30T18:04:59.001Z</time></trkpt><trkpt lat="51.043855056783954" lon="2.3832700893698044"><ele>6.166666666666667</ele><time>2026-04-30T18:05:10.001Z</time></trkpt><trkpt lat="51.043782872760794" lon="2.383212526136195"><ele>6.333333333333334</ele><time>2026-04-30T18:05:13.001Z</time></trkpt><trkpt lat="51.04370989514991" lon="2.3831678889556023"><ele>6.5</ele><time>2026-04-30T18:05:16.001Z</time></trkpt><trkpt lat="51.04365219692332" lon="2.3831191173549486"><ele>6.666666666666667</ele><time>2026-04-30T18:05:19.001Z</time></trkpt><trkpt lat="51.04366006217493" lon="2.3829949934180026"><ele>6.833333333333334</ele><time>2026-04-30T18:05:25.001Z</time></trkpt><trkpt lat="51.04368912075293" lon="2.3828562009987486"><ele>7.0</ele><time>2026-04-30T18:05:29.001Z</time></trkpt><trkpt lat="51.04368914619306" lon="2.3827387705449623"><ele>7.0</ele><time>2026-04-30T18:05:33Z</time></trkpt><trkpt lat="51.043724229318215" lon="2.382644385010028"><ele>7.0</ele><time>2026-04-30T18:05:38Z</time></trkpt><trkpt lat="51.04377378653961" lon="2.38256820631116"><ele>7.0</ele><time>2026-04-30T18:05:42Z</time></trkpt><trkpt lat="51.04380528791297" lon="2.3824678795667618"><ele>7.0</ele><time>2026-04-30T18:05:46Z</time></trkpt><trkpt lat="51.04376381876153" lon="2.382365431554723"><ele>7.0</ele><time>2026-04-30T18:05:49Z</time></trkpt><trkpt lat="51.043762017784694" lon="2.3822565528758517"><ele>7.0</ele><time>2026-04-30T18:05:54Z</time></trkpt><trkpt lat="51.04381793521689" lon="2.382197265150342"><ele>7.0</ele><time>2026-04-30T18:05:57Z</time></trkpt><trkpt lat="51.04389104350164" lon="2.382139778771789"><ele>6.833333333333334</ele><time>2026-04-30T18:06:00Z</time></trkpt><trkpt lat="51.04395117927182" lon="2.3820900320023415"><ele>6.666666666666667</ele><time>2026-04-30T18:06:03Z</time></trkpt><trkpt lat="51.04401877392424" lon="2.38201581023648"><ele>6.5</ele><time>2026-04-30T18:06:07Z</time></trkpt><trkpt lat="51.04405240191446" lon="2.3819237846771606"><ele>6.333333333333334</ele><time>2026-04-30T18:06:10Z</time></trkpt><trkpt lat="51.04404728882198" lon="2.3818002218008036"><ele>6.166666666666667</ele><time>2026-04-30T18:06:13Z</time></trkpt><trkpt lat="51.04401934680042" lon="2.3816779123091827"><ele>6.0</ele><time>2026-04-30T18:06:16Z</time></trkpt><trkpt lat="51.043968727258786" lon="2.3815864686751747"><ele>5.999999999999999</ele><time>2026-04-30T18:06:19Z</time></trkpt><trkpt lat="51.04393589826383" lon="2.3814852294430118"><ele>6.0</ele><time>2026-04-30T18:06:23Z</time></trkpt><trkpt lat="51.04390534393535" lon="2.3813873026436396"><ele>6.0</ele><time>2026-04-30T18:06:27Z</time></trkpt><trkpt lat="51.04387828478918" lon="2.38127889183588"><ele>6.0</ele><time>2026-04-30T18:06:30Z</time></trkpt><trkpt lat="51.043835838304076" lon="2.381201977413433"><ele>6.0</ele><time>2026-04-30T18:06:33Z</time></trkpt><trkpt lat="51.04380195181411" lon="2.3811145341150364"><ele>5.999999999999999</ele><time>2026-04-30T18:06:36Z</time></trkpt><trkpt lat="51.043780522754794" lon="2.3810201765441215"><ele>6.0</ele><time>2026-04-30T18:06:39Z</time></trkpt><trkpt lat="51.04374659876308" lon="2.380915506380163"><ele>6.0</ele><time>2026-04-30T18:06:42Z</time></trkpt><trkpt lat="51.043701706035996" lon="2.380816728450263"><ele>6.0</ele><time>2026-04-30T18:06:45Z</time></trkpt><trkpt lat="51.043648027973816" lon="2.3807255186408063"><ele>6.0</ele><time>2026-04-30T18:06:48Z</time></trkpt><trkpt lat="51.04360715505429" lon="2.380625975258854"><ele>6.0</ele><time>2026-04-30T18:06:51Z</time></trkpt><trkpt lat="51.04355545539051" lon="2.380509943209795"><ele>6.0</ele><time>2026-04-30T18:06:54Z</time></trkpt><trkpt lat="51.04350174496291" lon="2.3803970672799553"><ele>6.0</ele><time>2026-04-30T18:06:57Z</time></trkpt><trkpt lat="51.043463624615775" lon="2.380282744776103"><ele>5.833333333333333</ele><time>2026-04-30T18:06:59.999Z</time></trkpt><trkpt lat="51.04341251167632" lon="2.3801656182168314"><ele>5.666666666666667</ele><time>2026-04-30T18:07:02.999Z</time></trkpt><trkpt lat="51.043367751820185" lon="2.3800586512036532"><ele>5.5</ele><time>2026-04-30T18:07:05.999Z</time></trkpt><trkpt lat="51.04331565372454" lon="2.3799800235790305"><ele>5.333333333333334</ele><time>2026-04-30T18:07:08.999Z</time></trkpt><trkpt lat="51.043247628174974" lon="2.3798689093930596"><ele>5.166666666666667</ele><time>2026-04-30T18:07:11.999Z</time></trkpt><trkpt lat="51.0431966417891" lon="2.379787533409482"><ele>5.0</ele><time>2026-04-30T18:07:14.999Z</time></trkpt><trkpt lat="51.043123263749884" lon="2.3797232881082513"><ele>5.5</ele><time>2026-04-30T18:07:17.999Z</time></trkpt><trkpt lat="51.04306515505286" lon="2.3796382704325585"><ele>6.0</ele><time>2026-04-30T18:07:20.999Z</time></trkpt><trkpt lat="51.04301168356537" lon="2.3795501120717883"><ele>6.5</ele><time>2026-04-30T18:07:23.999Z</time></trkpt><trkpt lat="51.04295678530147" lon="2.37949163439592"><ele>7.0</ele><time>2026-04-30T18:07:25.999Z</time></trkpt><trkpt lat="51.042911961527636" lon="2.379387421702068"><ele>7.499999999999999</ele><time>2026-04-30T18:07:28.999Z</time></trkpt><trkpt lat="51.042871874780765" lon="2.3792766807753334"><ele>8.0</ele><time>2026-04-30T18:07:31.999Z</time></trkpt><trkpt lat="51.04283570598016" lon="2.3791848585523323"><ele>7.999999999999999</ele><time>2026-04-30T18:07:33.999Z</time></trkpt><trkpt lat="51.04280912580021" lon="2.3790930945981343"><ele>8.0</ele><time>2026-04-30T18:07:35.999Z</time></trkpt><trkpt lat="51.04277107053484" lon="2.379002164467807"><ele>8.0</ele><time>2026-04-30T18:07:37.999Z</time></trkpt><trkpt lat="51.042730928387286" lon="2.3788922688664953"><ele>8.0</ele><time>2026-04-30T18:07:40.999Z</time></trkpt><trkpt lat="51.04267767169594" lon="2.378790681163767"><ele>7.999999999999999</ele><time>2026-04-30T18:07:43.999Z</time></trkpt><trkpt lat="51.0426226905128" lon="2.3786479578734236"><ele>8.0</ele><time>2026-04-30T18:07:46.999Z</time></trkpt><trkpt lat="51.04257387186454" lon="2.3785393884138784"><ele>7.666666666666666</ele><time>2026-04-30T18:07:49.999Z</time></trkpt><trkpt lat="51.04251653653127" lon="2.3784918786655442"><ele>7.333333333333333</ele><time>2026-04-30T18:07:52.999Z</time></trkpt><trkpt lat="51.04247303749785" lon="2.3784018810492857"><ele>7.0</ele><time>2026-04-30T18:07:55.999Z</time></trkpt><trkpt lat="51.042391286400274" lon="2.3783240886250527"><ele>6.666666666666666</ele><time>2026-04-30T18:07:59.999Z</time></trkpt><trkpt lat="51.04230688737602" lon="2.3783817952928734"><ele>6.333333333333333</ele><time>2026-04-30T18:08:02.999Z</time></trkpt><trkpt lat="51.04224026755585" lon="2.3783378748983934"><ele>6.0</ele><time>2026-04-30T18:08:04.999Z</time></trkpt><trkpt lat="51.04217253025092" lon="2.3783714032385026"><ele>5.833333333333333</ele><time>2026-04-30T18:08:07.999Z</time></trkpt><trkpt lat="51.04211899703146" lon="2.3784459188576865"><ele>5.666666666666667</ele><time>2026-04-30T18:08:10.999Z</time></trkpt><trkpt lat="51.04206261447485" lon="2.378512152121572"><ele>5.5</ele><time>2026-04-30T18:08:13.999Z</time></trkpt><trkpt lat="51.041992783378745" lon="2.378580443335646"><ele>5.333333333333334</ele><time>2026-04-30T18:08:16.999Z</time></trkpt><trkpt lat="51.04196012373112" lon="2.3786906868347653"><ele>5.166666666666667</ele><time>2026-04-30T18:08:19.999Z</time></trkpt><trkpt lat="51.04190596480066" lon="2.3787536339502253"><ele>5.0</ele><time>2026-04-30T18:08:22.999Z</time></trkpt><trkpt lat="51.04189594754536" lon="2.378894097481068"><ele>5.333333333333334</ele><time>2026-04-30T18:09:57Z</time></trkpt><trkpt lat="51.04194918132797" lon="2.378979752151658"><ele>5.666666666666667</ele><time>2026-04-30T18:10:18Z</time></trkpt><trkpt lat="51.04198026407706" lon="2.3791033581227015"><ele>6.0</ele><time>2026-04-30T18:10:22Z</time></trkpt><trkpt lat="51.04202823429363" lon="2.3790363289669236"><ele>6.333333333333334</ele><time>2026-04-30T18:10:32Z</time></trkpt><trkpt lat="51.0421134543707" lon="2.3789677101789453"><ele>6.666666666666667</ele><time>2026-04-30T18:10:54Z</time></trkpt><trkpt lat="51.04215420818864" lon="2.378879304657803"><ele>7.0</ele><time>2026-04-30T18:11:23Z</time></trkpt><trkpt lat="51.04213507271223" lon="2.3790241420749902"><ele>7.0</ele><time>2026-04-30T18:13:38Z</time></trkpt><trkpt lat="51.04212420036228" lon="2.3791381983693225"><ele>7.0</ele><time>2026-04-30T18:13:39Z</time></trkpt><trkpt lat="51.042151859425836" lon="2.3789911496431366"><ele>7.0</ele><time>2026-04-30T18:13:51Z</time></trkpt><trkpt lat="51.04220776086158" lon="2.378941510881505"><ele>7.0</ele><time>2026-04-30T18:15:19Z</time></trkpt><trkpt lat="51.042194694805076" lon="2.378792168566976"><ele>5.0</ele><time>2026-04-30T18:15:21Z</time></trkpt></trkseg></trk></gpx>